<?xml version="1.0" encoding="UTF-8" standalone="no" ?>
<gpx xmlns="http://www.topografix.com/GPX/1/1" xmlns:xsi="http://www.w3.org/2001/XMLSchema-instance" xsi:schemaLocation="http://www.topografix.com/GPX/1/1 http://www.topografix.com/GPX/1/1/gpx.xsd" version="1.1" creator="VisuGPX - https://www.visugpx.com">
  <metadata>
    <name>Jurazimut223 J1 &amp; J2</name>
    <desc><![CDATA[Concaténation de J1 et de J2 au profit de Jurazimut223.]]></desc>
  </metadata>
  <trk>
    <name><![CDATA[Jurazimut223 J1 & J2_1]]></name>
    <trkseg>
      <trkpt lat="46.4366" lon="5.95741">
        <ele>1102.7</ele>
        <time>2018-07-08T05:05:55.000Z</time>
      </trkpt>
      <trkpt lat="46.43612" lon="5.95809">
        <ele>1141.9</ele>
        <time>2018-07-08T05:06:56.000Z</time>
      </trkpt>
      <trkpt lat="46.43619" lon="5.95802">
        <ele>1132.6</ele>
        <time>2018-07-08T05:07:56.000Z</time>
      </trkpt>
      <trkpt lat="46.4359" lon="5.95732">
        <ele>1132.7</ele>
        <time>2018-07-08T05:08:57.000Z</time>
      </trkpt>
      <trkpt lat="46.43544" lon="5.95675">
        <ele>1126.6</ele>
        <time>2018-07-08T05:09:57.000Z</time>
      </trkpt>
      <trkpt lat="46.43502" lon="5.95635">
        <ele>1110.3</ele>
        <time>2018-07-08T05:10:58.000Z</time>
      </trkpt>
      <trkpt lat="46.43481" lon="5.95566">
        <ele>1097.7</ele>
        <time>2018-07-08T05:11:58.000Z</time>
      </trkpt>
      <trkpt lat="46.43455" lon="5.9555">
        <ele>1092.7</ele>
        <time>2018-07-08T05:12:58.000Z</time>
      </trkpt>
      <trkpt lat="46.43435" lon="5.95527">
        <ele>1081.7</ele>
        <time>2018-07-08T05:13:59.000Z</time>
      </trkpt>
      <trkpt lat="46.43407" lon="5.95499">
        <ele>1082.7</ele>
        <time>2018-07-08T05:14:59.000Z</time>
      </trkpt>
      <trkpt lat="46.43393" lon="5.95458">
        <ele>1085.1</ele>
        <time>2018-07-08T05:16:00.000Z</time>
      </trkpt>
      <trkpt lat="46.43405" lon="5.95407">
        <ele>1076.1</ele>
        <time>2018-07-08T05:17:01.000Z</time>
      </trkpt>
      <trkpt lat="46.43378" lon="5.95334">
        <ele>1074.4</ele>
        <time>2018-07-08T05:18:01.000Z</time>
      </trkpt>
      <trkpt lat="46.43348" lon="5.95268">
        <ele>1064.8</ele>
        <time>2018-07-08T05:19:02.000Z</time>
      </trkpt>
      <trkpt lat="46.43335" lon="5.95191">
        <ele>1048.3</ele>
        <time>2018-07-08T05:20:03.000Z</time>
      </trkpt>
      <trkpt lat="46.43289" lon="5.95184">
        <ele>1038.4</ele>
        <time>2018-07-08T05:21:04.000Z</time>
      </trkpt>
      <trkpt lat="46.43226" lon="5.95206">
        <ele>1031.6</ele>
        <time>2018-07-08T05:22:04.000Z</time>
      </trkpt>
      <trkpt lat="46.43183" lon="5.95227">
        <ele>1032.6</ele>
        <time>2018-07-08T05:23:05.000Z</time>
      </trkpt>
      <trkpt lat="46.43154" lon="5.95204">
        <ele>1037.4</ele>
        <time>2018-07-08T05:24:06.000Z</time>
      </trkpt>
      <trkpt lat="46.43144" lon="5.9518">
        <ele>1044.2</ele>
        <time>2018-07-08T05:25:06.000Z</time>
      </trkpt>
      <trkpt lat="46.43135" lon="5.95146">
        <ele>1048.5</ele>
        <time>2018-07-08T05:26:07.000Z</time>
      </trkpt>
      <trkpt lat="46.4312" lon="5.95097">
        <ele>1052.4</ele>
        <time>2018-07-08T05:27:07.000Z</time>
      </trkpt>
      <trkpt lat="46.43108" lon="5.95051">
        <ele>1056.7</ele>
        <time>2018-07-08T05:28:08.000Z</time>
      </trkpt>
      <trkpt lat="46.43098" lon="5.95009">
        <ele>1059.2</ele>
        <time>2018-07-08T05:29:08.000Z</time>
      </trkpt>
      <trkpt lat="46.43085" lon="5.94944">
        <ele>1063.6</ele>
        <time>2018-07-08T05:30:09.000Z</time>
      </trkpt>
      <trkpt lat="46.43076" lon="5.94861">
        <ele>1058.4</ele>
        <time>2018-07-08T05:31:10.000Z</time>
      </trkpt>
      <trkpt lat="46.43087" lon="5.94769">
        <ele>1048.8</ele>
        <time>2018-07-08T05:32:11.000Z</time>
      </trkpt>
      <trkpt lat="46.43158" lon="5.94714">
        <ele>1040.1</ele>
        <time>2018-07-08T05:33:12.000Z</time>
      </trkpt>
      <trkpt lat="46.43171" lon="5.9462">
        <ele>1037</ele>
        <time>2018-07-08T05:34:13.000Z</time>
      </trkpt>
      <trkpt lat="46.43189" lon="5.94516">
        <ele>1032.6</ele>
        <time>2018-07-08T05:35:13.000Z</time>
      </trkpt>
      <trkpt lat="46.43193" lon="5.9448">
        <ele>1044.7</ele>
        <time>2018-07-08T05:36:14.000Z</time>
      </trkpt>
      <trkpt lat="46.43182" lon="5.94422">
        <ele>1051</ele>
        <time>2018-07-08T05:37:14.000Z</time>
      </trkpt>
      <trkpt lat="46.43169" lon="5.94372">
        <ele>1055.4</ele>
        <time>2018-07-08T05:38:15.000Z</time>
      </trkpt>
      <trkpt lat="46.4315" lon="5.94323">
        <ele>1041.4</ele>
        <time>2018-07-08T05:39:16.000Z</time>
      </trkpt>
      <trkpt lat="46.43139" lon="5.94301">
        <ele>1034.6</ele>
        <time>2018-07-08T05:40:17.000Z</time>
      </trkpt>
      <trkpt lat="46.43099" lon="5.94245">
        <ele>1029.1</ele>
        <time>2018-07-08T05:41:18.000Z</time>
      </trkpt>
      <trkpt lat="46.43084" lon="5.94203">
        <ele>1027.5</ele>
        <time>2018-07-08T05:42:19.000Z</time>
      </trkpt>
      <trkpt lat="46.43079" lon="5.94157">
        <ele>1031.7</ele>
        <time>2018-07-08T05:43:18.000Z</time>
      </trkpt>
      <trkpt lat="46.43069" lon="5.94108">
        <ele>1034.9</ele>
        <time>2018-07-08T05:44:18.000Z</time>
      </trkpt>
      <trkpt lat="46.43067" lon="5.94053">
        <ele>1038.2</ele>
        <time>2018-07-08T05:45:19.000Z</time>
      </trkpt>
      <trkpt lat="46.43082" lon="5.93999">
        <ele>1033.1</ele>
        <time>2018-07-08T05:46:19.000Z</time>
      </trkpt>
      <trkpt lat="46.43106" lon="5.93927">
        <ele>1010.8</ele>
        <time>2018-07-08T05:47:20.000Z</time>
      </trkpt>
      <trkpt lat="46.4308" lon="5.93903">
        <ele>1002.5</ele>
        <time>2018-07-08T05:48:21.000Z</time>
      </trkpt>
      <trkpt lat="46.43055" lon="5.93877">
        <ele>1003.4</ele>
        <time>2018-07-08T05:49:21.000Z</time>
      </trkpt>
      <trkpt lat="46.4304" lon="5.93787">
        <ele>1005.5</ele>
        <time>2018-07-08T05:50:21.000Z</time>
      </trkpt>
      <trkpt lat="46.43022" lon="5.93678">
        <ele>1022.6</ele>
        <time>2018-07-08T05:51:21.000Z</time>
      </trkpt>
      <trkpt lat="46.43051" lon="5.93579">
        <ele>1027.2</ele>
        <time>2018-07-08T05:52:22.000Z</time>
      </trkpt>
      <trkpt lat="46.43079" lon="5.93486">
        <ele>1020.4</ele>
        <time>2018-07-08T05:53:23.000Z</time>
      </trkpt>
      <trkpt lat="46.43046" lon="5.93409">
        <ele>1017.7</ele>
        <time>2018-07-08T05:54:24.000Z</time>
      </trkpt>
      <trkpt lat="46.43002" lon="5.93367">
        <ele>1006.1</ele>
        <time>2018-07-08T05:55:24.000Z</time>
      </trkpt>
      <trkpt lat="46.42973" lon="5.93352">
        <ele>1010.3</ele>
        <time>2018-07-08T05:56:25.000Z</time>
      </trkpt>
      <trkpt lat="46.42922" lon="5.93295">
        <ele>1010.9</ele>
        <time>2018-07-08T05:57:26.000Z</time>
      </trkpt>
      <trkpt lat="46.42877" lon="5.93222">
        <ele>987.7</ele>
        <time>2018-07-08T05:58:26.000Z</time>
      </trkpt>
      <trkpt lat="46.42852" lon="5.93122">
        <ele>984.6</ele>
        <time>2018-07-08T05:59:27.000Z</time>
      </trkpt>
      <trkpt lat="46.42821" lon="5.93031">
        <ele>998.3</ele>
        <time>2018-07-08T06:00:28.000Z</time>
      </trkpt>
      <trkpt lat="46.4277" lon="5.92973">
        <ele>1004.4</ele>
        <time>2018-07-08T06:01:29.000Z</time>
      </trkpt>
      <trkpt lat="46.42716" lon="5.92923">
        <ele>1003.6</ele>
        <time>2018-07-08T06:02:30.000Z</time>
      </trkpt>
      <trkpt lat="46.42663" lon="5.92845">
        <ele>993.9</ele>
        <time>2018-07-08T06:03:30.000Z</time>
      </trkpt>
      <trkpt lat="46.42617" lon="5.92761">
        <ele>998</ele>
        <time>2018-07-08T06:04:31.000Z</time>
      </trkpt>
      <trkpt lat="46.42553" lon="5.92736">
        <ele>1007.7</ele>
        <time>2018-07-08T06:05:31.000Z</time>
      </trkpt>
      <trkpt lat="46.42482" lon="5.9274">
        <ele>1016.2</ele>
        <time>2018-07-08T06:06:32.000Z</time>
      </trkpt>
      <trkpt lat="46.42431" lon="5.9271">
        <ele>1020.9</ele>
        <time>2018-07-08T06:07:32.000Z</time>
      </trkpt>
      <trkpt lat="46.42374" lon="5.92651">
        <ele>1014</ele>
        <time>2018-07-08T06:08:32.000Z</time>
      </trkpt>
      <trkpt lat="46.42317" lon="5.926">
        <ele>1014.9</ele>
        <time>2018-07-08T06:09:33.000Z</time>
      </trkpt>
      <trkpt lat="46.42268" lon="5.92543">
        <ele>1015.4</ele>
        <time>2018-07-08T06:10:33.000Z</time>
      </trkpt>
      <trkpt lat="46.42212" lon="5.92493">
        <ele>1017.6</ele>
        <time>2018-07-08T06:11:34.000Z</time>
      </trkpt>
      <trkpt lat="46.42177" lon="5.92486">
        <ele>1017.2</ele>
        <time>2018-07-08T06:12:34.000Z</time>
      </trkpt>
      <trkpt lat="46.42162" lon="5.92407">
        <ele>1021.1</ele>
        <time>2018-07-08T06:13:35.000Z</time>
      </trkpt>
      <trkpt lat="46.42152" lon="5.92318">
        <ele>1001.7</ele>
        <time>2018-07-08T06:14:36.000Z</time>
      </trkpt>
      <trkpt lat="46.42112" lon="5.92237">
        <ele>987.3</ele>
        <time>2018-07-08T06:15:36.000Z</time>
      </trkpt>
      <trkpt lat="46.42093" lon="5.92141">
        <ele>978.6</ele>
        <time>2018-07-08T06:16:37.000Z</time>
      </trkpt>
      <trkpt lat="46.42031" lon="5.92066">
        <ele>984.8</ele>
        <time>2018-07-08T06:17:37.000Z</time>
      </trkpt>
      <trkpt lat="46.42007" lon="5.92001">
        <ele>990.8</ele>
        <time>2018-07-08T06:18:38.000Z</time>
      </trkpt>
      <trkpt lat="46.41957" lon="5.91941">
        <ele>996</ele>
        <time>2018-07-08T06:19:38.000Z</time>
      </trkpt>
      <trkpt lat="46.41922" lon="5.9185">
        <ele>996.5</ele>
        <time>2018-07-08T06:20:39.000Z</time>
      </trkpt>
      <trkpt lat="46.41895" lon="5.91753">
        <ele>990.7</ele>
        <time>2018-07-08T06:21:40.000Z</time>
      </trkpt>
      <trkpt lat="46.41859" lon="5.91659">
        <ele>987.1</ele>
        <time>2018-07-08T06:22:41.000Z</time>
      </trkpt>
      <trkpt lat="46.41821" lon="5.91581">
        <ele>984.1</ele>
        <time>2018-07-08T06:23:42.000Z</time>
      </trkpt>
      <trkpt lat="46.41808" lon="5.91488">
        <ele>984.1</ele>
        <time>2018-07-08T06:24:42.000Z</time>
      </trkpt>
      <trkpt lat="46.41765" lon="5.91396">
        <ele>983.4</ele>
        <time>2018-07-08T06:25:42.000Z</time>
      </trkpt>
      <trkpt lat="46.41747" lon="5.91392">
        <ele>982.6</ele>
        <time>2018-07-08T06:26:42.000Z</time>
      </trkpt>
      <trkpt lat="46.41736" lon="5.91392">
        <ele>977.4</ele>
        <time>2018-07-08T06:27:43.000Z</time>
      </trkpt>
      <trkpt lat="46.41679" lon="5.91418">
        <ele>979.7</ele>
        <time>2018-07-08T06:28:44.000Z</time>
      </trkpt>
      <trkpt lat="46.41611" lon="5.91421">
        <ele>980.9</ele>
        <time>2018-07-08T06:29:45.000Z</time>
      </trkpt>
      <trkpt lat="46.41556" lon="5.91376">
        <ele>982.1</ele>
        <time>2018-07-08T06:30:45.000Z</time>
      </trkpt>
      <trkpt lat="46.41506" lon="5.91356">
        <ele>969.6</ele>
        <time>2018-07-08T06:31:46.000Z</time>
      </trkpt>
      <trkpt lat="46.41436" lon="5.91313">
        <ele>954.6</ele>
        <time>2018-07-08T06:32:47.000Z</time>
      </trkpt>
      <trkpt lat="46.4138" lon="5.91327">
        <ele>941.2</ele>
        <time>2018-07-08T06:33:48.000Z</time>
      </trkpt>
      <trkpt lat="46.41314" lon="5.91306">
        <ele>938.6</ele>
        <time>2018-07-08T06:34:48.000Z</time>
      </trkpt>
      <trkpt lat="46.41249" lon="5.91249">
        <ele>960.3</ele>
        <time>2018-07-08T06:35:48.000Z</time>
      </trkpt>
      <trkpt lat="46.4119" lon="5.91196">
        <ele>979.8</ele>
        <time>2018-07-08T06:36:49.000Z</time>
      </trkpt>
      <trkpt lat="46.41136" lon="5.91133">
        <ele>986.5</ele>
        <time>2018-07-08T06:37:50.000Z</time>
      </trkpt>
      <trkpt lat="46.41089" lon="5.91062">
        <ele>989.7</ele>
        <time>2018-07-08T06:38:51.000Z</time>
      </trkpt>
      <trkpt lat="46.41049" lon="5.90983">
        <ele>989.3</ele>
        <time>2018-07-08T06:39:51.000Z</time>
      </trkpt>
      <trkpt lat="46.41016" lon="5.90906">
        <ele>971.2</ele>
        <time>2018-07-08T06:40:52.000Z</time>
      </trkpt>
      <trkpt lat="46.40978" lon="5.90826">
        <ele>956.2</ele>
        <time>2018-07-08T06:41:53.000Z</time>
      </trkpt>
      <trkpt lat="46.40946" lon="5.90757">
        <ele>969.7</ele>
        <time>2018-07-08T06:42:54.000Z</time>
      </trkpt>
      <trkpt lat="46.40924" lon="5.90698">
        <ele>979</ele>
        <time>2018-07-08T06:43:55.000Z</time>
      </trkpt>
      <trkpt lat="46.40884" lon="5.90647">
        <ele>971</ele>
        <time>2018-07-08T06:44:56.000Z</time>
      </trkpt>
      <trkpt lat="46.4082" lon="5.90614">
        <ele>959.4</ele>
        <time>2018-07-08T06:45:57.000Z</time>
      </trkpt>
      <trkpt lat="46.40759" lon="5.90578">
        <ele>951.9</ele>
        <time>2018-07-08T06:46:58.000Z</time>
      </trkpt>
      <trkpt lat="46.40692" lon="5.90545">
        <ele>949</ele>
        <time>2018-07-08T06:47:59.000Z</time>
      </trkpt>
      <trkpt lat="46.40667" lon="5.9046">
        <ele>961.5</ele>
        <time>2018-07-08T06:49:00.000Z</time>
      </trkpt>
      <trkpt lat="46.40614" lon="5.90507">
        <ele>970.7</ele>
        <time>2018-07-08T06:50:01.000Z</time>
      </trkpt>
      <trkpt lat="46.40572" lon="5.90551">
        <ele>970.3</ele>
        <time>2018-07-08T06:51:02.000Z</time>
      </trkpt>
      <trkpt lat="46.40508" lon="5.90592">
        <ele>972.4</ele>
        <time>2018-07-08T06:52:03.000Z</time>
      </trkpt>
      <trkpt lat="46.40448" lon="5.90605">
        <ele>974.6</ele>
        <time>2018-07-08T06:53:03.000Z</time>
      </trkpt>
      <trkpt lat="46.40395" lon="5.90628">
        <ele>970.9</ele>
        <time>2018-07-08T06:54:04.000Z</time>
      </trkpt>
      <trkpt lat="46.40363" lon="5.90658">
        <ele>974.7</ele>
        <time>2018-07-08T06:55:05.000Z</time>
      </trkpt>
      <trkpt lat="46.40314" lon="5.90684">
        <ele>963.3</ele>
        <time>2018-07-08T06:56:05.000Z</time>
      </trkpt>
      <trkpt lat="46.4029" lon="5.90644">
        <ele>955</ele>
        <time>2018-07-08T06:57:06.000Z</time>
      </trkpt>
      <trkpt lat="46.40282" lon="5.90602">
        <ele>945.2</ele>
        <time>2018-07-08T06:58:06.000Z</time>
      </trkpt>
      <trkpt lat="46.40279" lon="5.90556">
        <ele>951.3</ele>
        <time>2018-07-08T06:59:06.000Z</time>
      </trkpt>
      <trkpt lat="46.40269" lon="5.90496">
        <ele>962.2</ele>
        <time>2018-07-08T07:00:07.000Z</time>
      </trkpt>
      <trkpt lat="46.4023" lon="5.90481">
        <ele>970.9</ele>
        <time>2018-07-08T07:01:06.000Z</time>
      </trkpt>
      <trkpt lat="46.40203" lon="5.9046">
        <ele>971.6</ele>
        <time>2018-07-08T07:02:07.000Z</time>
      </trkpt>
      <trkpt lat="46.40183" lon="5.90467">
        <ele>976.6</ele>
        <time>2018-07-08T07:03:07.000Z</time>
      </trkpt>
      <trkpt lat="46.40162" lon="5.90453">
        <ele>967.1</ele>
        <time>2018-07-08T07:04:08.000Z</time>
      </trkpt>
      <trkpt lat="46.40138" lon="5.90438">
        <ele>963.3</ele>
        <time>2018-07-08T07:05:09.000Z</time>
      </trkpt>
      <trkpt lat="46.40104" lon="5.90422">
        <ele>974.7</ele>
        <time>2018-07-08T07:06:10.000Z</time>
      </trkpt>
      <trkpt lat="46.40087" lon="5.90408">
        <ele>980.5</ele>
        <time>2018-07-08T07:07:11.000Z</time>
      </trkpt>
      <trkpt lat="46.40056" lon="5.90406">
        <ele>984.2</ele>
        <time>2018-07-08T07:08:12.000Z</time>
      </trkpt>
      <trkpt lat="46.40052" lon="5.90403">
        <ele>992.1</ele>
        <time>2018-07-08T07:10:18.000Z</time>
      </trkpt>
      <trkpt lat="46.40036" lon="5.90378">
        <ele>995.2</ele>
        <time>2018-07-08T07:11:18.000Z</time>
      </trkpt>
      <trkpt lat="46.40022" lon="5.90355">
        <ele>995.5</ele>
        <time>2018-07-08T07:12:19.000Z</time>
      </trkpt>
      <trkpt lat="46.39997" lon="5.90368">
        <ele>995</ele>
        <time>2018-07-08T07:13:19.000Z</time>
      </trkpt>
      <trkpt lat="46.39974" lon="5.90396">
        <ele>997.4</ele>
        <time>2018-07-08T07:14:20.000Z</time>
      </trkpt>
      <trkpt lat="46.39964" lon="5.90403">
        <ele>994.4</ele>
        <time>2018-07-08T07:15:21.000Z</time>
      </trkpt>
      <trkpt lat="46.39944" lon="5.90403">
        <ele>993.1</ele>
        <time>2018-07-08T07:16:21.000Z</time>
      </trkpt>
      <trkpt lat="46.39907" lon="5.90389">
        <ele>991.4</ele>
        <time>2018-07-08T07:17:22.000Z</time>
      </trkpt>
      <trkpt lat="46.39867" lon="5.90384">
        <ele>990.5</ele>
        <time>2018-07-08T07:18:22.000Z</time>
      </trkpt>
      <trkpt lat="46.3985" lon="5.90369">
        <ele>985.4</ele>
        <time>2018-07-08T07:19:22.000Z</time>
      </trkpt>
      <trkpt lat="46.39846" lon="5.90354">
        <ele>985.1</ele>
        <time>2018-07-08T07:20:23.000Z</time>
      </trkpt>
      <trkpt lat="46.3985" lon="5.90351">
        <ele>986.4</ele>
        <time>2018-07-08T07:21:24.000Z</time>
      </trkpt>
      <trkpt lat="46.39854" lon="5.90363">
        <ele>984.2</ele>
        <time>2018-07-08T07:22:24.000Z</time>
      </trkpt>
      <trkpt lat="46.39847" lon="5.9035">
        <ele>980.5</ele>
        <time>2018-07-08T07:23:25.000Z</time>
      </trkpt>
      <trkpt lat="46.39838" lon="5.90314">
        <ele>966.2</ele>
        <time>2018-07-08T07:24:26.000Z</time>
      </trkpt>
      <trkpt lat="46.39844" lon="5.90294">
        <ele>964.2</ele>
        <time>2018-07-08T07:25:26.000Z</time>
      </trkpt>
      <trkpt lat="46.39834" lon="5.90271">
        <ele>955.5</ele>
        <time>2018-07-08T07:26:27.000Z</time>
      </trkpt>
      <trkpt lat="46.39828" lon="5.90262">
        <ele>955.6</ele>
        <time>2018-07-08T07:27:27.000Z</time>
      </trkpt>
      <trkpt lat="46.39824" lon="5.90259">
        <ele>956.3</ele>
        <time>2018-07-08T07:28:33.000Z</time>
      </trkpt>
      <trkpt lat="46.39802" lon="5.90262">
        <ele>962.3</ele>
        <time>2018-07-08T07:29:34.000Z</time>
      </trkpt>
      <trkpt lat="46.398" lon="5.90271">
        <ele>958.7</ele>
        <time>2018-07-08T07:30:51.000Z</time>
      </trkpt>
      <trkpt lat="46.39793" lon="5.9027">
        <ele>954.7</ele>
        <time>2018-07-08T07:32:59.000Z</time>
      </trkpt>
      <trkpt lat="46.39769" lon="5.90292">
        <ele>965.9</ele>
        <time>2018-07-08T07:34:00.000Z</time>
      </trkpt>
      <trkpt lat="46.39749" lon="5.90286">
        <ele>957.4</ele>
        <time>2018-07-08T07:35:01.000Z</time>
      </trkpt>
      <trkpt lat="46.39738" lon="5.90285">
        <ele>948.2</ele>
        <time>2018-07-08T07:36:01.000Z</time>
      </trkpt>
      <trkpt lat="46.39735" lon="5.9028">
        <ele>945.6</ele>
        <time>2018-07-08T07:37:09.000Z</time>
      </trkpt>
      <trkpt lat="46.39719" lon="5.9029">
        <ele>939.5</ele>
        <time>2018-07-08T07:38:10.000Z</time>
      </trkpt>
      <trkpt lat="46.39703" lon="5.90307">
        <ele>934.3</ele>
        <time>2018-07-08T07:39:10.000Z</time>
      </trkpt>
      <trkpt lat="46.39672" lon="5.90308">
        <ele>928.3</ele>
        <time>2018-07-08T07:40:11.000Z</time>
      </trkpt>
      <trkpt lat="46.39654" lon="5.90306">
        <ele>924.7</ele>
        <time>2018-07-08T07:41:11.000Z</time>
      </trkpt>
      <trkpt lat="46.39646" lon="5.90307">
        <ele>924</ele>
        <time>2018-07-08T07:42:12.000Z</time>
      </trkpt>
      <trkpt lat="46.39618" lon="5.90312">
        <ele>907.7</ele>
        <time>2018-07-08T07:43:13.000Z</time>
      </trkpt>
      <trkpt lat="46.39566" lon="5.90295">
        <ele>886.4</ele>
        <time>2018-07-08T07:44:13.000Z</time>
      </trkpt>
      <trkpt lat="46.3952" lon="5.90271">
        <ele>870.5</ele>
        <time>2018-07-08T07:45:13.000Z</time>
      </trkpt>
      <trkpt lat="46.39487" lon="5.90202">
        <ele>858.6</ele>
        <time>2018-07-08T07:46:14.000Z</time>
      </trkpt>
      <trkpt lat="46.39464" lon="5.90165">
        <ele>848.1</ele>
        <time>2018-07-08T07:47:14.000Z</time>
      </trkpt>
      <trkpt lat="46.39443" lon="5.90161">
        <ele>847.6</ele>
        <time>2018-07-08T07:48:15.000Z</time>
      </trkpt>
      <trkpt lat="46.39448" lon="5.90167">
        <ele>847.5</ele>
        <time>2018-07-08T07:49:15.000Z</time>
      </trkpt>
      <trkpt lat="46.39441" lon="5.90151">
        <ele>846.7</ele>
        <time>2018-07-08T07:50:16.000Z</time>
      </trkpt>
      <trkpt lat="46.39444" lon="5.90133">
        <ele>845.6</ele>
        <time>2018-07-08T07:51:16.000Z</time>
      </trkpt>
      <trkpt lat="46.39428" lon="5.90113">
        <ele>844</ele>
        <time>2018-07-08T07:52:17.000Z</time>
      </trkpt>
      <trkpt lat="46.39445" lon="5.90061">
        <ele>862</ele>
        <time>2018-07-08T07:53:18.000Z</time>
      </trkpt>
      <trkpt lat="46.3946" lon="5.90033">
        <ele>857.9</ele>
        <time>2018-07-08T07:54:19.000Z</time>
      </trkpt>
      <trkpt lat="46.39461" lon="5.9004">
        <ele>840.1</ele>
        <time>2018-07-08T07:55:21.000Z</time>
      </trkpt>
      <trkpt lat="46.39455" lon="5.90027">
        <ele>838.9</ele>
        <time>2018-07-08T07:56:21.000Z</time>
      </trkpt>
      <trkpt lat="46.39434" lon="5.89989">
        <ele>839.4</ele>
        <time>2018-07-08T07:57:22.000Z</time>
      </trkpt>
      <trkpt lat="46.3944" lon="5.89933">
        <ele>835.7</ele>
        <time>2018-07-08T07:58:23.000Z</time>
      </trkpt>
      <trkpt lat="46.39445" lon="5.89914">
        <ele>835</ele>
        <time>2018-07-08T07:59:24.000Z</time>
      </trkpt>
      <trkpt lat="46.39455" lon="5.89881">
        <ele>831.2</ele>
        <time>2018-07-08T08:00:25.000Z</time>
      </trkpt>
      <trkpt lat="46.39452" lon="5.89864">
        <ele>828.4</ele>
        <time>2018-07-08T08:01:25.000Z</time>
      </trkpt>
      <trkpt lat="46.39424" lon="5.89845">
        <ele>817.9</ele>
        <time>2018-07-08T08:02:26.000Z</time>
      </trkpt>
      <trkpt lat="46.39417" lon="5.89834">
        <ele>809</ele>
        <time>2018-07-08T08:03:26.000Z</time>
      </trkpt>
      <trkpt lat="46.39412" lon="5.89814">
        <ele>808.5</ele>
        <time>2018-07-08T08:04:27.000Z</time>
      </trkpt>
      <trkpt lat="46.39395" lon="5.89792">
        <ele>808.1</ele>
        <time>2018-07-08T08:05:28.000Z</time>
      </trkpt>
      <trkpt lat="46.39392" lon="5.89797">
        <ele>806.8</ele>
        <time>2018-07-08T08:06:32.000Z</time>
      </trkpt>
      <trkpt lat="46.39381" lon="5.89791">
        <ele>808.9</ele>
        <time>2018-07-08T08:07:33.000Z</time>
      </trkpt>
      <trkpt lat="46.39343" lon="5.89804">
        <ele>805.7</ele>
        <time>2018-07-08T08:08:34.000Z</time>
      </trkpt>
      <trkpt lat="46.39323" lon="5.89847">
        <ele>809.2</ele>
        <time>2018-07-08T08:09:34.000Z</time>
      </trkpt>
      <trkpt lat="46.39305" lon="5.89838">
        <ele>808.8</ele>
        <time>2018-07-08T08:10:35.000Z</time>
      </trkpt>
      <trkpt lat="46.39316" lon="5.89845">
        <ele>807.2</ele>
        <time>2018-07-08T08:11:36.000Z</time>
      </trkpt>
      <trkpt lat="46.39316" lon="5.89838">
        <ele>814.2</ele>
        <time>2018-07-08T08:12:39.000Z</time>
      </trkpt>
      <trkpt lat="46.39302" lon="5.89838">
        <ele>816.9</ele>
        <time>2018-07-08T08:13:40.000Z</time>
      </trkpt>
      <trkpt lat="46.39306" lon="5.89834">
        <ele>820.9</ele>
        <time>2018-07-08T08:14:43.000Z</time>
      </trkpt>
      <trkpt lat="46.3929" lon="5.89833">
        <ele>820.8</ele>
        <time>2018-07-08T08:15:44.000Z</time>
      </trkpt>
      <trkpt lat="46.39297" lon="5.89842">
        <ele>819.8</ele>
        <time>2018-07-08T08:16:45.000Z</time>
      </trkpt>
      <trkpt lat="46.39303" lon="5.89845">
        <ele>824.4</ele>
        <time>2018-07-08T08:17:46.000Z</time>
      </trkpt>
      <trkpt lat="46.39309" lon="5.89833">
        <ele>818.8</ele>
        <time>2018-07-08T08:18:47.000Z</time>
      </trkpt>
      <trkpt lat="46.39294" lon="5.89829">
        <ele>821.7</ele>
        <time>2018-07-08T08:19:48.000Z</time>
      </trkpt>
      <trkpt lat="46.39278" lon="5.89816">
        <ele>820.8</ele>
        <time>2018-07-08T08:20:49.000Z</time>
      </trkpt>
      <trkpt lat="46.39246" lon="5.89798">
        <ele>816.5</ele>
        <time>2018-07-08T08:21:50.000Z</time>
      </trkpt>
      <trkpt lat="46.39204" lon="5.89774">
        <ele>797.3</ele>
        <time>2018-07-08T08:22:51.000Z</time>
      </trkpt>
      <trkpt lat="46.39158" lon="5.89739">
        <ele>775.5</ele>
        <time>2018-07-08T08:23:52.000Z</time>
      </trkpt>
      <trkpt lat="46.39101" lon="5.897">
        <ele>762.1</ele>
        <time>2018-07-08T08:24:53.000Z</time>
      </trkpt>
      <trkpt lat="46.39088" lon="5.89662">
        <ele>748.9</ele>
        <time>2018-07-08T08:25:53.000Z</time>
      </trkpt>
      <trkpt lat="46.39092" lon="5.89667">
        <ele>750.6</ele>
        <time>2018-07-08T08:27:06.000Z</time>
      </trkpt>
      <trkpt lat="46.39098" lon="5.89715">
        <ele>757.6</ele>
        <time>2018-07-08T08:28:06.000Z</time>
      </trkpt>
      <trkpt lat="46.39094" lon="5.89783">
        <ele>763.3</ele>
        <time>2018-07-08T08:29:07.000Z</time>
      </trkpt>
      <trkpt lat="46.391" lon="5.89826">
        <ele>766.5</ele>
        <time>2018-07-08T08:30:08.000Z</time>
      </trkpt>
      <trkpt lat="46.39095" lon="5.89901">
        <ele>769</ele>
        <time>2018-07-08T08:31:08.000Z</time>
      </trkpt>
      <trkpt lat="46.39113" lon="5.89968">
        <ele>773.8</ele>
        <time>2018-07-08T08:32:09.000Z</time>
      </trkpt>
      <trkpt lat="46.39105" lon="5.90039">
        <ele>770.8</ele>
        <time>2018-07-08T08:33:10.000Z</time>
      </trkpt>
      <trkpt lat="46.39102" lon="5.90111">
        <ele>769.1</ele>
        <time>2018-07-08T08:34:11.000Z</time>
      </trkpt>
      <trkpt lat="46.39104" lon="5.90187">
        <ele>765.5</ele>
        <time>2018-07-08T08:35:12.000Z</time>
      </trkpt>
      <trkpt lat="46.39116" lon="5.90196">
        <ele>761.2</ele>
        <time>2018-07-08T08:36:13.000Z</time>
      </trkpt>
      <trkpt lat="46.39097" lon="5.90222">
        <ele>761</ele>
        <time>2018-07-08T08:37:14.000Z</time>
      </trkpt>
      <trkpt lat="46.39074" lon="5.90304">
        <ele>759.1</ele>
        <time>2018-07-08T08:38:15.000Z</time>
      </trkpt>
      <trkpt lat="46.39049" lon="5.90362">
        <ele>758.1</ele>
        <time>2018-07-08T08:39:16.000Z</time>
      </trkpt>
      <trkpt lat="46.39028" lon="5.90391">
        <ele>764.9</ele>
        <time>2018-07-08T08:40:17.000Z</time>
      </trkpt>
      <trkpt lat="46.38995" lon="5.90408">
        <ele>768.8</ele>
        <time>2018-07-08T08:41:18.000Z</time>
      </trkpt>
      <trkpt lat="46.38975" lon="5.9041">
        <ele>774.6</ele>
        <time>2018-07-08T08:42:19.000Z</time>
      </trkpt>
      <trkpt lat="46.38996" lon="5.90414">
        <ele>779.2</ele>
        <time>2018-07-08T08:43:20.000Z</time>
      </trkpt>
      <trkpt lat="46.39023" lon="5.90416">
        <ele>784.4</ele>
        <time>2018-07-08T08:44:21.000Z</time>
      </trkpt>
      <trkpt lat="46.39036" lon="5.90415">
        <ele>787.9</ele>
        <time>2018-07-08T08:45:22.000Z</time>
      </trkpt>
      <trkpt lat="46.3906" lon="5.90443">
        <ele>784.9</ele>
        <time>2018-07-08T08:46:23.000Z</time>
      </trkpt>
      <trkpt lat="46.39062" lon="5.9046">
        <ele>782.7</ele>
        <time>2018-07-08T08:47:24.000Z</time>
      </trkpt>
      <trkpt lat="46.39079" lon="5.90483">
        <ele>794.9</ele>
        <time>2018-07-08T08:48:24.000Z</time>
      </trkpt>
      <trkpt lat="46.39105" lon="5.90514">
        <ele>808.5</ele>
        <time>2018-07-08T08:49:25.000Z</time>
      </trkpt>
      <trkpt lat="46.39135" lon="5.90539">
        <ele>821.6</ele>
        <time>2018-07-08T08:50:25.000Z</time>
      </trkpt>
      <trkpt lat="46.39158" lon="5.90561">
        <ele>816</ele>
        <time>2018-07-08T08:51:26.000Z</time>
      </trkpt>
      <trkpt lat="46.39181" lon="5.90581">
        <ele>817.9</ele>
        <time>2018-07-08T08:52:27.000Z</time>
      </trkpt>
      <trkpt lat="46.3917" lon="5.90605">
        <ele>823.4</ele>
        <time>2018-07-08T08:53:27.000Z</time>
      </trkpt>
      <trkpt lat="46.39162" lon="5.90636">
        <ele>828.5</ele>
        <time>2018-07-08T08:54:28.000Z</time>
      </trkpt>
      <trkpt lat="46.39136" lon="5.90653">
        <ele>833.1</ele>
        <time>2018-07-08T08:55:29.000Z</time>
      </trkpt>
      <trkpt lat="46.39133" lon="5.9066">
        <ele>834.4</ele>
        <time>2018-07-08T08:56:30.000Z</time>
      </trkpt>
      <trkpt lat="46.39129" lon="5.90659">
        <ele>837.7</ele>
        <time>2018-07-08T08:57:31.000Z</time>
      </trkpt>
      <trkpt lat="46.39125" lon="5.90753">
        <ele>834.7</ele>
        <time>2018-07-08T08:58:32.000Z</time>
      </trkpt>
      <trkpt lat="46.39128" lon="5.90822">
        <ele>820</ele>
        <time>2018-07-08T08:59:32.000Z</time>
      </trkpt>
      <trkpt lat="46.39141" lon="5.90877">
        <ele>804.1</ele>
        <time>2018-07-08T09:00:33.000Z</time>
      </trkpt>
      <trkpt lat="46.39125" lon="5.9093">
        <ele>795.9</ele>
        <time>2018-07-08T09:01:34.000Z</time>
      </trkpt>
      <trkpt lat="46.39134" lon="5.90921">
        <ele>800.5</ele>
        <time>2018-07-08T09:02:34.000Z</time>
      </trkpt>
      <trkpt lat="46.39138" lon="5.90929">
        <ele>804.1</ele>
        <time>2018-07-08T09:03:35.000Z</time>
      </trkpt>
      <trkpt lat="46.39171" lon="5.90919">
        <ele>797.3</ele>
        <time>2018-07-08T09:04:35.000Z</time>
      </trkpt>
      <trkpt lat="46.39189" lon="5.90952">
        <ele>802.3</ele>
        <time>2018-07-08T09:05:36.000Z</time>
      </trkpt>
      <trkpt lat="46.39151" lon="5.90971">
        <ele>800</ele>
        <time>2018-07-08T09:06:37.000Z</time>
      </trkpt>
      <trkpt lat="46.391" lon="5.90923">
        <ele>819.8</ele>
        <time>2018-07-08T09:07:37.000Z</time>
      </trkpt>
      <trkpt lat="46.39063" lon="5.90903">
        <ele>838.2</ele>
        <time>2018-07-08T09:08:38.000Z</time>
      </trkpt>
      <trkpt lat="46.39028" lon="5.90872">
        <ele>855.5</ele>
        <time>2018-07-08T09:09:38.000Z</time>
      </trkpt>
      <trkpt lat="46.38977" lon="5.90828">
        <ele>865.3</ele>
        <time>2018-07-08T09:10:39.000Z</time>
      </trkpt>
      <trkpt lat="46.38955" lon="5.9081">
        <ele>865.8</ele>
        <time>2018-07-08T09:11:39.000Z</time>
      </trkpt>
      <trkpt lat="46.38922" lon="5.90732">
        <ele>858.7</ele>
        <time>2018-07-08T09:12:40.000Z</time>
      </trkpt>
      <trkpt lat="46.38891" lon="5.90682">
        <ele>848.1</ele>
        <time>2018-07-08T09:13:41.000Z</time>
      </trkpt>
      <trkpt lat="46.38853" lon="5.90652">
        <ele>837.5</ele>
        <time>2018-07-08T09:14:42.000Z</time>
      </trkpt>
      <trkpt lat="46.38801" lon="5.90601">
        <ele>825.4</ele>
        <time>2018-07-08T09:15:42.000Z</time>
      </trkpt>
      <trkpt lat="46.3876" lon="5.90537">
        <ele>814.5</ele>
        <time>2018-07-08T09:16:43.000Z</time>
      </trkpt>
      <trkpt lat="46.38739" lon="5.90461">
        <ele>811.8</ele>
        <time>2018-07-08T09:17:43.000Z</time>
      </trkpt>
      <trkpt lat="46.38717" lon="5.90385">
        <ele>803.4</ele>
        <time>2018-07-08T09:18:44.000Z</time>
      </trkpt>
      <trkpt lat="46.38703" lon="5.90301">
        <ele>798.4</ele>
        <time>2018-07-08T09:19:44.000Z</time>
      </trkpt>
      <trkpt lat="46.38734" lon="5.9026">
        <ele>796.1</ele>
        <time>2018-07-08T09:20:45.000Z</time>
      </trkpt>
      <trkpt lat="46.38737" lon="5.90225">
        <ele>791.7</ele>
        <time>2018-07-08T09:21:45.000Z</time>
      </trkpt>
      <trkpt lat="46.38717" lon="5.90196">
        <ele>792.4</ele>
        <time>2018-07-08T09:22:46.000Z</time>
      </trkpt>
      <trkpt lat="46.38704" lon="5.90145">
        <ele>795.4</ele>
        <time>2018-07-08T09:23:47.000Z</time>
      </trkpt>
      <trkpt lat="46.38678" lon="5.90059">
        <ele>801</ele>
        <time>2018-07-08T09:24:48.000Z</time>
      </trkpt>
      <trkpt lat="46.38655" lon="5.90012">
        <ele>803.6</ele>
        <time>2018-07-08T09:25:48.000Z</time>
      </trkpt>
      <trkpt lat="46.38641" lon="5.89956">
        <ele>800.2</ele>
        <time>2018-07-08T09:26:49.000Z</time>
      </trkpt>
      <trkpt lat="46.38601" lon="5.89884">
        <ele>795.4</ele>
        <time>2018-07-08T09:27:49.000Z</time>
      </trkpt>
      <trkpt lat="46.38555" lon="5.89822">
        <ele>780.9</ele>
        <time>2018-07-08T09:28:50.000Z</time>
      </trkpt>
      <trkpt lat="46.38533" lon="5.8976">
        <ele>786.2</ele>
        <time>2018-07-08T09:29:51.000Z</time>
      </trkpt>
      <trkpt lat="46.38502" lon="5.89679">
        <ele>782</ele>
        <time>2018-07-08T09:30:52.000Z</time>
      </trkpt>
      <trkpt lat="46.38479" lon="5.89625">
        <ele>787.9</ele>
        <time>2018-07-08T09:31:52.000Z</time>
      </trkpt>
      <trkpt lat="46.38448" lon="5.89554">
        <ele>791</ele>
        <time>2018-07-08T09:32:53.000Z</time>
      </trkpt>
      <trkpt lat="46.38406" lon="5.895">
        <ele>784.2</ele>
        <time>2018-07-08T09:33:53.000Z</time>
      </trkpt>
      <trkpt lat="46.38353" lon="5.89439">
        <ele>775.6</ele>
        <time>2018-07-08T09:34:54.000Z</time>
      </trkpt>
      <trkpt lat="46.38307" lon="5.89382">
        <ele>765.3</ele>
        <time>2018-07-08T09:35:54.000Z</time>
      </trkpt>
      <trkpt lat="46.3826" lon="5.89338">
        <ele>755.5</ele>
        <time>2018-07-08T09:36:54.000Z</time>
      </trkpt>
      <trkpt lat="46.38203" lon="5.8929">
        <ele>746.8</ele>
        <time>2018-07-08T09:37:55.000Z</time>
      </trkpt>
      <trkpt lat="46.38146" lon="5.89269">
        <ele>739.1</ele>
        <time>2018-07-08T09:38:56.000Z</time>
      </trkpt>
      <trkpt lat="46.381" lon="5.89243">
        <ele>731.5</ele>
        <time>2018-07-08T09:39:56.000Z</time>
      </trkpt>
      <trkpt lat="46.38043" lon="5.89227">
        <ele>719.8</ele>
        <time>2018-07-08T09:40:57.000Z</time>
      </trkpt>
      <trkpt lat="46.37996" lon="5.89233">
        <ele>705.2</ele>
        <time>2018-07-08T09:41:58.000Z</time>
      </trkpt>
      <trkpt lat="46.37927" lon="5.89253">
        <ele>692.9</ele>
        <time>2018-07-08T09:42:58.000Z</time>
      </trkpt>
      <trkpt lat="46.37868" lon="5.89241">
        <ele>679.5</ele>
        <time>2018-07-08T09:43:59.000Z</time>
      </trkpt>
      <trkpt lat="46.3792" lon="5.89229">
        <ele>664</ele>
        <time>2018-07-08T09:45:00.000Z</time>
      </trkpt>
      <trkpt lat="46.37955" lon="5.89175">
        <ele>654.9</ele>
        <time>2018-07-08T09:46:00.000Z</time>
      </trkpt>
      <trkpt lat="46.37956" lon="5.89168">
        <ele>654.6</ele>
        <time>2018-07-08T09:47:02.000Z</time>
      </trkpt>
      <trkpt lat="46.37984" lon="5.89122">
        <ele>674.5</ele>
        <time>2018-07-08T09:48:02.000Z</time>
      </trkpt>
      <trkpt lat="46.38005" lon="5.89049">
        <ele>691.7</ele>
        <time>2018-07-08T09:49:03.000Z</time>
      </trkpt>
      <trkpt lat="46.38015" lon="5.88971">
        <ele>700.2</ele>
        <time>2018-07-08T09:50:04.000Z</time>
      </trkpt>
      <trkpt lat="46.37999" lon="5.88885">
        <ele>697.1</ele>
        <time>2018-07-08T09:51:05.000Z</time>
      </trkpt>
      <trkpt lat="46.37964" lon="5.88865">
        <ele>670.2</ele>
        <time>2018-07-08T09:52:05.000Z</time>
      </trkpt>
      <trkpt lat="46.37923" lon="5.88841">
        <ele>643.9</ele>
        <time>2018-07-08T09:53:06.000Z</time>
      </trkpt>
      <trkpt lat="46.37874" lon="5.88808">
        <ele>616.3</ele>
        <time>2018-07-08T09:54:07.000Z</time>
      </trkpt>
      <trkpt lat="46.37853" lon="5.88805">
        <ele>608.8</ele>
        <time>2018-07-08T09:55:08.000Z</time>
      </trkpt>
      <trkpt lat="46.37813" lon="5.88788">
        <ele>615.2</ele>
        <time>2018-07-08T09:56:08.000Z</time>
      </trkpt>
      <trkpt lat="46.37805" lon="5.88723">
        <ele>604.8</ele>
        <time>2018-07-08T09:57:09.000Z</time>
      </trkpt>
      <trkpt lat="46.37789" lon="5.88734">
        <ele>589.4</ele>
        <time>2018-07-08T09:58:10.000Z</time>
      </trkpt>
      <trkpt lat="46.37756" lon="5.8877">
        <ele>587.6</ele>
        <time>2018-07-08T09:59:11.000Z</time>
      </trkpt>
      <trkpt lat="46.3776" lon="5.88845">
        <ele>584.9</ele>
        <time>2018-07-08T10:00:11.000Z</time>
      </trkpt>
      <trkpt lat="46.37721" lon="5.88801">
        <ele>578.5</ele>
        <time>2018-07-08T10:01:12.000Z</time>
      </trkpt>
      <trkpt lat="46.37708" lon="5.88725">
        <ele>562.9</ele>
        <time>2018-07-08T10:02:12.000Z</time>
      </trkpt>
      <trkpt lat="46.37737" lon="5.88657">
        <ele>544.3</ele>
        <time>2018-07-08T10:03:13.000Z</time>
      </trkpt>
      <trkpt lat="46.37766" lon="5.8858">
        <ele>529.6</ele>
        <time>2018-07-08T10:04:13.000Z</time>
      </trkpt>
      <trkpt lat="46.37781" lon="5.88499">
        <ele>515.1</ele>
        <time>2018-07-08T10:05:14.000Z</time>
      </trkpt>
      <trkpt lat="46.37799" lon="5.88473">
        <ele>495.9</ele>
        <time>2018-07-08T10:06:15.000Z</time>
      </trkpt>
      <trkpt lat="46.37833" lon="5.88523">
        <ele>476.1</ele>
        <time>2018-07-08T10:07:15.000Z</time>
      </trkpt>
      <trkpt lat="46.37879" lon="5.88545">
        <ele>471.6</ele>
        <time>2018-07-08T10:08:16.000Z</time>
      </trkpt>
      <trkpt lat="46.37941" lon="5.88543">
        <ele>475.1</ele>
        <time>2018-07-08T10:09:17.000Z</time>
      </trkpt>
      <trkpt lat="46.37914" lon="5.88516">
        <ele>470.3</ele>
        <time>2018-07-08T10:10:18.000Z</time>
      </trkpt>
      <trkpt lat="46.37889" lon="5.88501">
        <ele>461.1</ele>
        <time>2018-07-08T10:11:18.000Z</time>
      </trkpt>
      <trkpt lat="46.37865" lon="5.88423">
        <ele>452.9</ele>
        <time>2018-07-08T10:12:19.000Z</time>
      </trkpt>
      <trkpt lat="46.37819" lon="5.88386">
        <ele>447.7</ele>
        <time>2018-07-08T10:13:19.000Z</time>
      </trkpt>
      <trkpt lat="46.37776" lon="5.88314">
        <ele>438.6</ele>
        <time>2018-07-08T10:14:20.000Z</time>
      </trkpt>
      <trkpt lat="46.37718" lon="5.88292">
        <ele>427.6</ele>
        <time>2018-07-08T10:15:20.000Z</time>
      </trkpt>
      <trkpt lat="46.37689" lon="5.88256">
        <ele>426.6</ele>
        <time>2018-07-08T10:16:21.000Z</time>
      </trkpt>
      <trkpt lat="46.37695" lon="5.88256">
        <ele>429</ele>
        <time>2018-07-08T10:18:07.000Z</time>
      </trkpt>
      <trkpt lat="46.37655" lon="5.88257">
        <ele>507.1</ele>
        <time>2018-07-08T11:05:28.000Z</time>
      </trkpt>
      <trkpt lat="46.37708" lon="5.882">
        <ele>442.7</ele>
        <time>2018-07-08T11:06:29.000Z</time>
      </trkpt>
      <trkpt lat="46.377" lon="5.88151">
        <ele>438.9</ele>
        <time>2018-07-08T11:07:30.000Z</time>
      </trkpt>
      <trkpt lat="46.37677" lon="5.8811">
        <ele>438.9</ele>
        <time>2018-07-08T11:08:31.000Z</time>
      </trkpt>
      <trkpt lat="46.37651" lon="5.88034">
        <ele>432.6</ele>
        <time>2018-07-08T11:09:32.000Z</time>
      </trkpt>
      <trkpt lat="46.37632" lon="5.8794">
        <ele>425.9</ele>
        <time>2018-07-08T11:10:33.000Z</time>
      </trkpt>
      <trkpt lat="46.37607" lon="5.87907">
        <ele>424.5</ele>
        <time>2018-07-08T11:11:34.000Z</time>
      </trkpt>
      <trkpt lat="46.3762" lon="5.87921">
        <ele>427</ele>
        <time>2018-07-08T11:12:35.000Z</time>
      </trkpt>
      <trkpt lat="46.37614" lon="5.87938">
        <ele>423.7</ele>
        <time>2018-07-08T11:13:35.000Z</time>
      </trkpt>
      <trkpt lat="46.37612" lon="5.87912">
        <ele>432.8</ele>
        <time>2018-07-08T11:14:36.000Z</time>
      </trkpt>
      <trkpt lat="46.37612" lon="5.87925">
        <ele>433.8</ele>
        <time>2018-07-08T11:15:58.000Z</time>
      </trkpt>
      <trkpt lat="46.37613" lon="5.87906">
        <ele>438.5</ele>
        <time>2018-07-08T11:16:59.000Z</time>
      </trkpt>
      <trkpt lat="46.37633" lon="5.87815">
        <ele>433.6</ele>
        <time>2018-07-08T11:17:59.000Z</time>
      </trkpt>
      <trkpt lat="46.37616" lon="5.87698">
        <ele>408.9</ele>
        <time>2018-07-08T11:19:00.000Z</time>
      </trkpt>
      <trkpt lat="46.37635" lon="5.87629">
        <ele>413</ele>
        <time>2018-07-08T11:20:01.000Z</time>
      </trkpt>
      <trkpt lat="46.37654" lon="5.87539">
        <ele>408</ele>
        <time>2018-07-08T11:21:01.000Z</time>
      </trkpt>
      <trkpt lat="46.37647" lon="5.87428">
        <ele>400.3</ele>
        <time>2018-07-08T11:22:02.000Z</time>
      </trkpt>
      <trkpt lat="46.37659" lon="5.87347">
        <ele>412.3</ele>
        <time>2018-07-08T11:23:03.000Z</time>
      </trkpt>
      <trkpt lat="46.37685" lon="5.87247">
        <ele>397.5</ele>
        <time>2018-07-08T11:24:03.000Z</time>
      </trkpt>
      <trkpt lat="46.37698" lon="5.87138">
        <ele>403.2</ele>
        <time>2018-07-08T11:25:03.000Z</time>
      </trkpt>
      <trkpt lat="46.37641" lon="5.87073">
        <ele>419.5</ele>
        <time>2018-07-08T11:26:04.000Z</time>
      </trkpt>
      <trkpt lat="46.37571" lon="5.87067">
        <ele>430.9</ele>
        <time>2018-07-08T11:27:04.000Z</time>
      </trkpt>
      <trkpt lat="46.37498" lon="5.87066">
        <ele>443.3</ele>
        <time>2018-07-08T11:28:05.000Z</time>
      </trkpt>
      <trkpt lat="46.37431" lon="5.87026">
        <ele>416.3</ele>
        <time>2018-07-08T11:29:06.000Z</time>
      </trkpt>
      <trkpt lat="46.37365" lon="5.86983">
        <ele>423.7</ele>
        <time>2018-07-08T11:30:06.000Z</time>
      </trkpt>
      <trkpt lat="46.37311" lon="5.86961">
        <ele>436</ele>
        <time>2018-07-08T11:31:07.000Z</time>
      </trkpt>
      <trkpt lat="46.37246" lon="5.86925">
        <ele>446.8</ele>
        <time>2018-07-08T11:32:07.000Z</time>
      </trkpt>
      <trkpt lat="46.37182" lon="5.86878">
        <ele>452.6</ele>
        <time>2018-07-08T11:33:08.000Z</time>
      </trkpt>
      <trkpt lat="46.3712" lon="5.86839">
        <ele>458</ele>
        <time>2018-07-08T11:34:09.000Z</time>
      </trkpt>
      <trkpt lat="46.37069" lon="5.86763">
        <ele>457.5</ele>
        <time>2018-07-08T11:35:09.000Z</time>
      </trkpt>
      <trkpt lat="46.37019" lon="5.86692">
        <ele>456.2</ele>
        <time>2018-07-08T11:36:09.000Z</time>
      </trkpt>
      <trkpt lat="46.36968" lon="5.86625">
        <ele>456.8</ele>
        <time>2018-07-08T11:37:10.000Z</time>
      </trkpt>
      <trkpt lat="46.36926" lon="5.86537">
        <ele>459.2</ele>
        <time>2018-07-08T11:38:11.000Z</time>
      </trkpt>
      <trkpt lat="46.36893" lon="5.86446">
        <ele>459.4</ele>
        <time>2018-07-08T11:39:12.000Z</time>
      </trkpt>
      <trkpt lat="46.36866" lon="5.86352">
        <ele>457.7</ele>
        <time>2018-07-08T11:40:12.000Z</time>
      </trkpt>
      <trkpt lat="46.36822" lon="5.8628">
        <ele>476.5</ele>
        <time>2018-07-08T11:41:13.000Z</time>
      </trkpt>
      <trkpt lat="46.36761" lon="5.8623">
        <ele>508.4</ele>
        <time>2018-07-08T11:42:14.000Z</time>
      </trkpt>
      <trkpt lat="46.36728" lon="5.86147">
        <ele>519.6</ele>
        <time>2018-07-08T11:43:14.000Z</time>
      </trkpt>
      <trkpt lat="46.36696" lon="5.86064">
        <ele>527.3</ele>
        <time>2018-07-08T11:44:15.000Z</time>
      </trkpt>
      <trkpt lat="46.36627" lon="5.86032">
        <ele>544.3</ele>
        <time>2018-07-08T11:45:16.000Z</time>
      </trkpt>
      <trkpt lat="46.36573" lon="5.85975">
        <ele>551.5</ele>
        <time>2018-07-08T11:46:17.000Z</time>
      </trkpt>
      <trkpt lat="46.36529" lon="5.85909">
        <ele>530.8</ele>
        <time>2018-07-08T11:47:17.000Z</time>
      </trkpt>
      <trkpt lat="46.36482" lon="5.85829">
        <ele>526.6</ele>
        <time>2018-07-08T11:48:18.000Z</time>
      </trkpt>
      <trkpt lat="46.36437" lon="5.85764">
        <ele>526.4</ele>
        <time>2018-07-08T11:49:19.000Z</time>
      </trkpt>
      <trkpt lat="46.36408" lon="5.85675">
        <ele>523.8</ele>
        <time>2018-07-08T11:50:20.000Z</time>
      </trkpt>
      <trkpt lat="46.36398" lon="5.85636">
        <ele>516.5</ele>
        <time>2018-07-08T11:51:21.000Z</time>
      </trkpt>
      <trkpt lat="46.36389" lon="5.85639">
        <ele>524.5</ele>
        <time>2018-07-08T11:52:21.000Z</time>
      </trkpt>
      <trkpt lat="46.36391" lon="5.85645">
        <ele>527.6</ele>
        <time>2018-07-08T11:54:11.000Z</time>
      </trkpt>
      <trkpt lat="46.36386" lon="5.85646">
        <ele>533.4</ele>
        <time>2018-07-08T11:56:09.000Z</time>
      </trkpt>
      <trkpt lat="46.36339" lon="5.85596">
        <ele>514.6</ele>
        <time>2018-07-08T11:57:10.000Z</time>
      </trkpt>
      <trkpt lat="46.36325" lon="5.85516">
        <ele>500.7</ele>
        <time>2018-07-08T11:58:10.000Z</time>
      </trkpt>
      <trkpt lat="46.36279" lon="5.85449">
        <ele>491</ele>
        <time>2018-07-08T11:59:11.000Z</time>
      </trkpt>
      <trkpt lat="46.36228" lon="5.85412">
        <ele>488.9</ele>
        <time>2018-07-08T12:00:12.000Z</time>
      </trkpt>
      <trkpt lat="46.36167" lon="5.8537">
        <ele>504.4</ele>
        <time>2018-07-08T12:01:13.000Z</time>
      </trkpt>
      <trkpt lat="46.36111" lon="5.85319">
        <ele>525.9</ele>
        <time>2018-07-08T12:02:14.000Z</time>
      </trkpt>
      <trkpt lat="46.36057" lon="5.85267">
        <ele>558</ele>
        <time>2018-07-08T12:03:14.000Z</time>
      </trkpt>
      <trkpt lat="46.3604" lon="5.85226">
        <ele>565.9</ele>
        <time>2018-07-08T12:04:15.000Z</time>
      </trkpt>
      <trkpt lat="46.36073" lon="5.85148">
        <ele>568.1</ele>
        <time>2018-07-08T12:05:16.000Z</time>
      </trkpt>
      <trkpt lat="46.36077" lon="5.85133">
        <ele>568.7</ele>
        <time>2018-07-08T12:06:17.000Z</time>
      </trkpt>
      <trkpt lat="46.36035" lon="5.85078">
        <ele>568.8</ele>
        <time>2018-07-08T12:07:17.000Z</time>
      </trkpt>
      <trkpt lat="46.35999" lon="5.85063">
        <ele>576</ele>
        <time>2018-07-08T12:08:18.000Z</time>
      </trkpt>
      <trkpt lat="46.35957" lon="5.8499">
        <ele>579</ele>
        <time>2018-07-08T12:09:19.000Z</time>
      </trkpt>
      <trkpt lat="46.35927" lon="5.84903">
        <ele>589.4</ele>
        <time>2018-07-08T12:10:20.000Z</time>
      </trkpt>
      <trkpt lat="46.35886" lon="5.84825">
        <ele>599.9</ele>
        <time>2018-07-08T12:11:21.000Z</time>
      </trkpt>
      <trkpt lat="46.35843" lon="5.84755">
        <ele>608.4</ele>
        <time>2018-07-08T12:12:21.000Z</time>
      </trkpt>
      <trkpt lat="46.358" lon="5.84682">
        <ele>614.9</ele>
        <time>2018-07-08T12:13:22.000Z</time>
      </trkpt>
      <trkpt lat="46.3577" lon="5.84612">
        <ele>629.9</ele>
        <time>2018-07-08T12:14:23.000Z</time>
      </trkpt>
      <trkpt lat="46.35732" lon="5.8457">
        <ele>634.9</ele>
        <time>2018-07-08T12:15:24.000Z</time>
      </trkpt>
      <trkpt lat="46.35695" lon="5.84562">
        <ele>626.7</ele>
        <time>2018-07-08T12:16:24.000Z</time>
      </trkpt>
      <trkpt lat="46.3564" lon="5.84512">
        <ele>627.3</ele>
        <time>2018-07-08T12:17:25.000Z</time>
      </trkpt>
      <trkpt lat="46.3558" lon="5.84471">
        <ele>629.8</ele>
        <time>2018-07-08T12:18:26.000Z</time>
      </trkpt>
      <trkpt lat="46.35522" lon="5.84469">
        <ele>631.1</ele>
        <time>2018-07-08T12:19:27.000Z</time>
      </trkpt>
      <trkpt lat="46.35458" lon="5.84457">
        <ele>630.6</ele>
        <time>2018-07-08T12:20:28.000Z</time>
      </trkpt>
      <trkpt lat="46.35399" lon="5.84411">
        <ele>640.2</ele>
        <time>2018-07-08T12:21:29.000Z</time>
      </trkpt>
      <trkpt lat="46.35381" lon="5.84328">
        <ele>644.1</ele>
        <time>2018-07-08T12:22:29.000Z</time>
      </trkpt>
      <trkpt lat="46.3535" lon="5.84249">
        <ele>646.3</ele>
        <time>2018-07-08T12:23:30.000Z</time>
      </trkpt>
      <trkpt lat="46.35306" lon="5.84183">
        <ele>653.3</ele>
        <time>2018-07-08T12:24:31.000Z</time>
      </trkpt>
      <trkpt lat="46.3527" lon="5.84102">
        <ele>653.4</ele>
        <time>2018-07-08T12:25:31.000Z</time>
      </trkpt>
      <trkpt lat="46.35233" lon="5.84024">
        <ele>658.4</ele>
        <time>2018-07-08T12:26:32.000Z</time>
      </trkpt>
      <trkpt lat="46.35169" lon="5.8399">
        <ele>661.1</ele>
        <time>2018-07-08T12:27:33.000Z</time>
      </trkpt>
      <trkpt lat="46.3511" lon="5.83939">
        <ele>659</ele>
        <time>2018-07-08T12:28:34.000Z</time>
      </trkpt>
      <trkpt lat="46.35069" lon="5.83872">
        <ele>650.9</ele>
        <time>2018-07-08T12:29:34.000Z</time>
      </trkpt>
      <trkpt lat="46.35004" lon="5.83842">
        <ele>660.9</ele>
        <time>2018-07-08T12:30:35.000Z</time>
      </trkpt>
      <trkpt lat="46.34948" lon="5.83797">
        <ele>671.2</ele>
        <time>2018-07-08T12:31:35.000Z</time>
      </trkpt>
      <trkpt lat="46.3489" lon="5.8375">
        <ele>676.4</ele>
        <time>2018-07-08T12:32:36.000Z</time>
      </trkpt>
      <trkpt lat="46.34834" lon="5.83701">
        <ele>681.4</ele>
        <time>2018-07-08T12:33:37.000Z</time>
      </trkpt>
      <trkpt lat="46.34778" lon="5.83659">
        <ele>684.4</ele>
        <time>2018-07-08T12:34:38.000Z</time>
      </trkpt>
      <trkpt lat="46.34727" lon="5.83602">
        <ele>696.8</ele>
        <time>2018-07-08T12:35:39.000Z</time>
      </trkpt>
      <trkpt lat="46.34677" lon="5.83543">
        <ele>698.6</ele>
        <time>2018-07-08T12:36:39.000Z</time>
      </trkpt>
      <trkpt lat="46.34627" lon="5.83487">
        <ele>700.8</ele>
        <time>2018-07-08T12:37:40.000Z</time>
      </trkpt>
      <trkpt lat="46.34577" lon="5.83427">
        <ele>708.3</ele>
        <time>2018-07-08T12:38:40.000Z</time>
      </trkpt>
      <trkpt lat="46.34523" lon="5.83378">
        <ele>704.7</ele>
        <time>2018-07-08T12:39:40.000Z</time>
      </trkpt>
      <trkpt lat="46.34466" lon="5.83328">
        <ele>709.9</ele>
        <time>2018-07-08T12:40:41.000Z</time>
      </trkpt>
      <trkpt lat="46.34416" lon="5.83267">
        <ele>705.8</ele>
        <time>2018-07-08T12:41:42.000Z</time>
      </trkpt>
      <trkpt lat="46.34371" lon="5.83203">
        <ele>715</ele>
        <time>2018-07-08T12:42:43.000Z</time>
      </trkpt>
      <trkpt lat="46.34334" lon="5.83136">
        <ele>698.3</ele>
        <time>2018-07-08T12:43:43.000Z</time>
      </trkpt>
      <trkpt lat="46.34293" lon="5.83071">
        <ele>704.9</ele>
        <time>2018-07-08T12:44:44.000Z</time>
      </trkpt>
      <trkpt lat="46.34248" lon="5.83015">
        <ele>730.8</ele>
        <time>2018-07-08T12:45:45.000Z</time>
      </trkpt>
      <trkpt lat="46.34201" lon="5.82951">
        <ele>736.8</ele>
        <time>2018-07-08T12:46:46.000Z</time>
      </trkpt>
      <trkpt lat="46.34178" lon="5.82872">
        <ele>736.6</ele>
        <time>2018-07-08T12:47:47.000Z</time>
      </trkpt>
      <trkpt lat="46.34183" lon="5.82867">
        <ele>733.1</ele>
        <time>2018-07-08T12:48:48.000Z</time>
      </trkpt>
      <trkpt lat="46.34157" lon="5.82813">
        <ele>738.2</ele>
        <time>2018-07-08T12:49:49.000Z</time>
      </trkpt>
      <trkpt lat="46.34122" lon="5.82753">
        <ele>742.9</ele>
        <time>2018-07-08T12:50:49.000Z</time>
      </trkpt>
      <trkpt lat="46.3407" lon="5.82723">
        <ele>738.6</ele>
        <time>2018-07-08T12:51:50.000Z</time>
      </trkpt>
      <trkpt lat="46.3402" lon="5.82688">
        <ele>739.7</ele>
        <time>2018-07-08T12:52:50.000Z</time>
      </trkpt>
      <trkpt lat="46.3398" lon="5.82629">
        <ele>732.9</ele>
        <time>2018-07-08T12:53:51.000Z</time>
      </trkpt>
      <trkpt lat="46.33932" lon="5.8258">
        <ele>735.9</ele>
        <time>2018-07-08T12:54:52.000Z</time>
      </trkpt>
      <trkpt lat="46.33886" lon="5.82524">
        <ele>736.8</ele>
        <time>2018-07-08T12:55:53.000Z</time>
      </trkpt>
      <trkpt lat="46.33834" lon="5.82478">
        <ele>744.9</ele>
        <time>2018-07-08T12:56:54.000Z</time>
      </trkpt>
      <trkpt lat="46.33785" lon="5.82419">
        <ele>762.4</ele>
        <time>2018-07-08T12:57:54.000Z</time>
      </trkpt>
      <trkpt lat="46.33787" lon="5.82375">
        <ele>766.7</ele>
        <time>2018-07-08T12:58:55.000Z</time>
      </trkpt>
      <trkpt lat="46.3376" lon="5.82299">
        <ele>771.6</ele>
        <time>2018-07-08T12:59:56.000Z</time>
      </trkpt>
      <trkpt lat="46.3372" lon="5.82232">
        <ele>775.9</ele>
        <time>2018-07-08T13:00:57.000Z</time>
      </trkpt>
      <trkpt lat="46.33684" lon="5.82162">
        <ele>780.1</ele>
        <time>2018-07-08T13:01:58.000Z</time>
      </trkpt>
      <trkpt lat="46.33631" lon="5.82116">
        <ele>780.2</ele>
        <time>2018-07-08T13:02:58.000Z</time>
      </trkpt>
      <trkpt lat="46.3358" lon="5.82063">
        <ele>791.5</ele>
        <time>2018-07-08T13:03:59.000Z</time>
      </trkpt>
      <trkpt lat="46.33521" lon="5.82037">
        <ele>797.9</ele>
        <time>2018-07-08T13:04:59.000Z</time>
      </trkpt>
      <trkpt lat="46.33462" lon="5.82029">
        <ele>796.4</ele>
        <time>2018-07-08T13:05:59.000Z</time>
      </trkpt>
      <trkpt lat="46.33403" lon="5.82019">
        <ele>788</ele>
        <time>2018-07-08T13:06:59.000Z</time>
      </trkpt>
      <trkpt lat="46.33368" lon="5.81988">
        <ele>799.8</ele>
        <time>2018-07-08T13:08:00.000Z</time>
      </trkpt>
      <trkpt lat="46.33316" lon="5.82001">
        <ele>800.9</ele>
        <time>2018-07-08T13:09:01.000Z</time>
      </trkpt>
      <trkpt lat="46.33264" lon="5.82036">
        <ele>801.7</ele>
        <time>2018-07-08T13:10:01.000Z</time>
      </trkpt>
      <trkpt lat="46.33213" lon="5.8205">
        <ele>789.3</ele>
        <time>2018-07-08T13:11:02.000Z</time>
      </trkpt>
      <trkpt lat="46.33151" lon="5.8204">
        <ele>783.7</ele>
        <time>2018-07-08T13:12:02.000Z</time>
      </trkpt>
      <trkpt lat="46.33091" lon="5.82034">
        <ele>795.4</ele>
        <time>2018-07-08T13:13:03.000Z</time>
      </trkpt>
      <trkpt lat="46.33033" lon="5.82025">
        <ele>789.6</ele>
        <time>2018-07-08T13:14:04.000Z</time>
      </trkpt>
      <trkpt lat="46.3298" lon="5.82009">
        <ele>783.7</ele>
        <time>2018-07-08T13:15:05.000Z</time>
      </trkpt>
      <trkpt lat="46.32919" lon="5.81989">
        <ele>779.8</ele>
        <time>2018-07-08T13:16:06.000Z</time>
      </trkpt>
      <trkpt lat="46.3286" lon="5.81986">
        <ele>790.4</ele>
        <time>2018-07-08T13:17:06.000Z</time>
      </trkpt>
      <trkpt lat="46.32808" lon="5.81939">
        <ele>802.2</ele>
        <time>2018-07-08T13:18:07.000Z</time>
      </trkpt>
      <trkpt lat="46.32748" lon="5.81912">
        <ele>809.2</ele>
        <time>2018-07-08T13:19:07.000Z</time>
      </trkpt>
      <trkpt lat="46.32694" lon="5.81871">
        <ele>807</ele>
        <time>2018-07-08T13:20:08.000Z</time>
      </trkpt>
      <trkpt lat="46.32655" lon="5.8189">
        <ele>827.5</ele>
        <time>2018-07-08T13:21:09.000Z</time>
      </trkpt>
      <trkpt lat="46.3265" lon="5.81899">
        <ele>837.6</ele>
        <time>2018-07-08T13:22:09.000Z</time>
      </trkpt>
      <trkpt lat="46.3265" lon="5.81908">
        <ele>844.2</ele>
        <time>2018-07-08T13:32:55.000Z</time>
      </trkpt>
      <trkpt lat="46.32646" lon="5.81904">
        <ele>845.2</ele>
        <time>2018-07-08T13:37:24.000Z</time>
      </trkpt>
      <trkpt lat="46.32611" lon="5.81895">
        <ele>847.4</ele>
        <time>2018-07-08T13:38:25.000Z</time>
      </trkpt>
      <trkpt lat="46.32562" lon="5.81845">
        <ele>855.2</ele>
        <time>2018-07-08T13:39:25.000Z</time>
      </trkpt>
      <trkpt lat="46.32504" lon="5.81818">
        <ele>863.9</ele>
        <time>2018-07-08T13:40:26.000Z</time>
      </trkpt>
      <trkpt lat="46.32445" lon="5.81785">
        <ele>861.9</ele>
        <time>2018-07-08T13:41:26.000Z</time>
      </trkpt>
      <trkpt lat="46.32383" lon="5.81755">
        <ele>861.7</ele>
        <time>2018-07-08T13:42:27.000Z</time>
      </trkpt>
      <trkpt lat="46.3233" lon="5.81712">
        <ele>871.8</ele>
        <time>2018-07-08T13:43:28.000Z</time>
      </trkpt>
      <trkpt lat="46.32263" lon="5.81699">
        <ele>871.1</ele>
        <time>2018-07-08T13:44:29.000Z</time>
      </trkpt>
      <trkpt lat="46.32197" lon="5.81707">
        <ele>880.3</ele>
        <time>2018-07-08T13:45:30.000Z</time>
      </trkpt>
      <trkpt lat="46.3213" lon="5.81729">
        <ele>880.6</ele>
        <time>2018-07-08T13:46:31.000Z</time>
      </trkpt>
      <trkpt lat="46.3206" lon="5.81716">
        <ele>878.1</ele>
        <time>2018-07-08T13:47:32.000Z</time>
      </trkpt>
      <trkpt lat="46.31997" lon="5.81672">
        <ele>880.1</ele>
        <time>2018-07-08T13:48:32.000Z</time>
      </trkpt>
      <trkpt lat="46.31937" lon="5.81628">
        <ele>876.1</ele>
        <time>2018-07-08T13:49:33.000Z</time>
      </trkpt>
      <trkpt lat="46.31869" lon="5.81606">
        <ele>868.8</ele>
        <time>2018-07-08T13:50:34.000Z</time>
      </trkpt>
      <trkpt lat="46.31802" lon="5.81596">
        <ele>874.4</ele>
        <time>2018-07-08T13:51:34.000Z</time>
      </trkpt>
      <trkpt lat="46.31735" lon="5.8159">
        <ele>867.8</ele>
        <time>2018-07-08T13:52:34.000Z</time>
      </trkpt>
      <trkpt lat="46.31666" lon="5.81594">
        <ele>871.2</ele>
        <time>2018-07-08T13:53:35.000Z</time>
      </trkpt>
      <trkpt lat="46.31634" lon="5.81542">
        <ele>875.5</ele>
        <time>2018-07-08T13:54:36.000Z</time>
      </trkpt>
      <trkpt lat="46.31579" lon="5.81543">
        <ele>879.3</ele>
        <time>2018-07-08T13:55:37.000Z</time>
      </trkpt>
      <trkpt lat="46.31519" lon="5.81505">
        <ele>880.1</ele>
        <time>2018-07-08T13:56:38.000Z</time>
      </trkpt>
      <trkpt lat="46.3146" lon="5.81499">
        <ele>886.4</ele>
        <time>2018-07-08T13:57:39.000Z</time>
      </trkpt>
      <trkpt lat="46.31392" lon="5.81534">
        <ele>911.1</ele>
        <time>2018-07-08T13:58:40.000Z</time>
      </trkpt>
      <trkpt lat="46.31332" lon="5.8155">
        <ele>920.4</ele>
        <time>2018-07-08T13:59:41.000Z</time>
      </trkpt>
      <trkpt lat="46.3128" lon="5.81593">
        <ele>919.4</ele>
        <time>2018-07-08T14:00:42.000Z</time>
      </trkpt>
      <trkpt lat="46.31232" lon="5.81633">
        <ele>910.8</ele>
        <time>2018-07-08T14:01:43.000Z</time>
      </trkpt>
      <trkpt lat="46.31173" lon="5.81655">
        <ele>897.8</ele>
        <time>2018-07-08T14:02:44.000Z</time>
      </trkpt>
      <trkpt lat="46.31112" lon="5.81646">
        <ele>902</ele>
        <time>2018-07-08T14:03:45.000Z</time>
      </trkpt>
      <trkpt lat="46.31063" lon="5.81597">
        <ele>906.7</ele>
        <time>2018-07-08T14:04:45.000Z</time>
      </trkpt>
      <trkpt lat="46.31016" lon="5.81549">
        <ele>914.9</ele>
        <time>2018-07-08T14:05:46.000Z</time>
      </trkpt>
      <trkpt lat="46.30961" lon="5.81514">
        <ele>920.3</ele>
        <time>2018-07-08T14:06:47.000Z</time>
      </trkpt>
      <trkpt lat="46.30908" lon="5.8147">
        <ele>924.9</ele>
        <time>2018-07-08T14:07:48.000Z</time>
      </trkpt>
      <trkpt lat="46.30855" lon="5.81429">
        <ele>925.2</ele>
        <time>2018-07-08T14:08:48.000Z</time>
      </trkpt>
      <trkpt lat="46.30806" lon="5.81385">
        <ele>945.9</ele>
        <time>2018-07-08T14:09:49.000Z</time>
      </trkpt>
      <trkpt lat="46.30758" lon="5.81328">
        <ele>953.7</ele>
        <time>2018-07-08T14:10:50.000Z</time>
      </trkpt>
      <trkpt lat="46.30704" lon="5.81292">
        <ele>937.7</ele>
        <time>2018-07-08T14:11:51.000Z</time>
      </trkpt>
      <trkpt lat="46.30646" lon="5.81251">
        <ele>920.2</ele>
        <time>2018-07-08T14:12:51.000Z</time>
      </trkpt>
      <trkpt lat="46.3058" lon="5.81222">
        <ele>900.3</ele>
        <time>2018-07-08T14:13:52.000Z</time>
      </trkpt>
      <trkpt lat="46.30529" lon="5.81216">
        <ele>917.9</ele>
        <time>2018-07-08T14:14:52.000Z</time>
      </trkpt>
      <trkpt lat="46.30461" lon="5.81192">
        <ele>941.2</ele>
        <time>2018-07-08T14:15:53.000Z</time>
      </trkpt>
      <trkpt lat="46.30393" lon="5.81191">
        <ele>956.4</ele>
        <time>2018-07-08T14:16:54.000Z</time>
      </trkpt>
      <trkpt lat="46.30332" lon="5.8119">
        <ele>960.4</ele>
        <time>2018-07-08T14:17:55.000Z</time>
      </trkpt>
      <trkpt lat="46.30273" lon="5.81162">
        <ele>961.7</ele>
        <time>2018-07-08T14:18:55.000Z</time>
      </trkpt>
      <trkpt lat="46.30217" lon="5.81111">
        <ele>959.9</ele>
        <time>2018-07-08T14:19:56.000Z</time>
      </trkpt>
      <trkpt lat="46.3017" lon="5.81062">
        <ele>964.3</ele>
        <time>2018-07-08T14:20:56.000Z</time>
      </trkpt>
      <trkpt lat="46.30123" lon="5.81008">
        <ele>973.2</ele>
        <time>2018-07-08T14:21:57.000Z</time>
      </trkpt>
      <trkpt lat="46.30099" lon="5.80925">
        <ele>973.4</ele>
        <time>2018-07-08T14:22:57.000Z</time>
      </trkpt>
      <trkpt lat="46.30065" lon="5.80874">
        <ele>972.2</ele>
        <time>2018-07-08T14:23:58.000Z</time>
      </trkpt>
      <trkpt lat="46.30006" lon="5.80855">
        <ele>976</ele>
        <time>2018-07-08T14:24:58.000Z</time>
      </trkpt>
      <trkpt lat="46.29946" lon="5.80842">
        <ele>984.8</ele>
        <time>2018-07-08T14:25:59.000Z</time>
      </trkpt>
      <trkpt lat="46.29887" lon="5.808">
        <ele>991.4</ele>
        <time>2018-07-08T14:27:00.000Z</time>
      </trkpt>
      <trkpt lat="46.29836" lon="5.80738">
        <ele>994.8</ele>
        <time>2018-07-08T14:28:01.000Z</time>
      </trkpt>
      <trkpt lat="46.29785" lon="5.80678">
        <ele>997.9</ele>
        <time>2018-07-08T14:29:01.000Z</time>
      </trkpt>
      <trkpt lat="46.29733" lon="5.80626">
        <ele>1001.6</ele>
        <time>2018-07-08T14:30:02.000Z</time>
      </trkpt>
      <trkpt lat="46.29671" lon="5.80605">
        <ele>1008.3</ele>
        <time>2018-07-08T14:31:03.000Z</time>
      </trkpt>
      <trkpt lat="46.2961" lon="5.8058">
        <ele>1009.3</ele>
        <time>2018-07-08T14:32:03.000Z</time>
      </trkpt>
      <trkpt lat="46.2955" lon="5.80567">
        <ele>1013.8</ele>
        <time>2018-07-08T14:33:04.000Z</time>
      </trkpt>
      <trkpt lat="46.29496" lon="5.80522">
        <ele>1013.6</ele>
        <time>2018-07-08T14:34:04.000Z</time>
      </trkpt>
      <trkpt lat="46.29459" lon="5.80448">
        <ele>1011.4</ele>
        <time>2018-07-08T14:35:05.000Z</time>
      </trkpt>
      <trkpt lat="46.29407" lon="5.80395">
        <ele>1011.3</ele>
        <time>2018-07-08T14:36:06.000Z</time>
      </trkpt>
      <trkpt lat="46.29359" lon="5.80341">
        <ele>1019.9</ele>
        <time>2018-07-08T14:37:06.000Z</time>
      </trkpt>
      <trkpt lat="46.29305" lon="5.80304">
        <ele>1025.1</ele>
        <time>2018-07-08T14:38:06.000Z</time>
      </trkpt>
      <trkpt lat="46.29244" lon="5.8027">
        <ele>1028.6</ele>
        <time>2018-07-08T14:39:07.000Z</time>
      </trkpt>
      <trkpt lat="46.29185" lon="5.80236">
        <ele>1031.7</ele>
        <time>2018-07-08T14:40:07.000Z</time>
      </trkpt>
      <trkpt lat="46.29128" lon="5.80187">
        <ele>1031.9</ele>
        <time>2018-07-08T14:41:08.000Z</time>
      </trkpt>
      <trkpt lat="46.29073" lon="5.80135">
        <ele>1033.4</ele>
        <time>2018-07-08T14:42:09.000Z</time>
      </trkpt>
      <trkpt lat="46.29022" lon="5.80088">
        <ele>1037.4</ele>
        <time>2018-07-08T14:43:10.000Z</time>
      </trkpt>
      <trkpt lat="46.2897" lon="5.80042">
        <ele>1037.8</ele>
        <time>2018-07-08T14:44:10.000Z</time>
      </trkpt>
      <trkpt lat="46.28918" lon="5.79996">
        <ele>1039</ele>
        <time>2018-07-08T14:45:11.000Z</time>
      </trkpt>
      <trkpt lat="46.28867" lon="5.79948">
        <ele>1042</ele>
        <time>2018-07-08T14:46:11.000Z</time>
      </trkpt>
      <trkpt lat="46.28823" lon="5.79875">
        <ele>1044.3</ele>
        <time>2018-07-08T14:47:12.000Z</time>
      </trkpt>
      <trkpt lat="46.28818" lon="5.79831">
        <ele>1042.4</ele>
        <time>2018-07-08T14:48:13.000Z</time>
      </trkpt>
      <trkpt lat="46.28813" lon="5.79734">
        <ele>1040.1</ele>
        <time>2018-07-08T14:49:13.000Z</time>
      </trkpt>
      <trkpt lat="46.28807" lon="5.79637">
        <ele>1030.6</ele>
        <time>2018-07-08T14:50:14.000Z</time>
      </trkpt>
      <trkpt lat="46.28792" lon="5.79544">
        <ele>1022.3</ele>
        <time>2018-07-08T14:51:14.000Z</time>
      </trkpt>
      <trkpt lat="46.28761" lon="5.79462">
        <ele>1022</ele>
        <time>2018-07-08T14:52:14.000Z</time>
      </trkpt>
      <trkpt lat="46.28726" lon="5.79376">
        <ele>1023.6</ele>
        <time>2018-07-08T14:53:15.000Z</time>
      </trkpt>
      <trkpt lat="46.28674" lon="5.79313">
        <ele>1020.2</ele>
        <time>2018-07-08T14:54:16.000Z</time>
      </trkpt>
      <trkpt lat="46.28629" lon="5.79261">
        <ele>1015.8</ele>
        <time>2018-07-08T14:55:16.000Z</time>
      </trkpt>
      <trkpt lat="46.28572" lon="5.79214">
        <ele>1012.1</ele>
        <time>2018-07-08T14:56:17.000Z</time>
      </trkpt>
      <trkpt lat="46.2851" lon="5.79205">
        <ele>1004.4</ele>
        <time>2018-07-08T14:57:18.000Z</time>
      </trkpt>
      <trkpt lat="46.28439" lon="5.79198">
        <ele>1002.2</ele>
        <time>2018-07-08T14:58:18.000Z</time>
      </trkpt>
      <trkpt lat="46.28371" lon="5.79188">
        <ele>1000.7</ele>
        <time>2018-07-08T14:59:19.000Z</time>
      </trkpt>
      <trkpt lat="46.28305" lon="5.79172">
        <ele>997.4</ele>
        <time>2018-07-08T15:00:20.000Z</time>
      </trkpt>
      <trkpt lat="46.28238" lon="5.79149">
        <ele>995.6</ele>
        <time>2018-07-08T15:01:21.000Z</time>
      </trkpt>
      <trkpt lat="46.28175" lon="5.79125">
        <ele>993.7</ele>
        <time>2018-07-08T15:02:22.000Z</time>
      </trkpt>
      <trkpt lat="46.28135" lon="5.79111">
        <ele>993.7</ele>
        <time>2018-07-08T15:03:23.000Z</time>
      </trkpt>
      <trkpt lat="46.28095" lon="5.79092">
        <ele>992.8</ele>
        <time>2018-07-08T15:04:24.000Z</time>
      </trkpt>
      <trkpt lat="46.28091" lon="5.79093">
        <ele>995.2</ele>
        <time>2018-07-08T15:07:23.000Z</time>
      </trkpt>
      <trkpt lat="46.28019" lon="5.7907">
        <ele>992.7</ele>
        <time>2018-07-08T15:08:24.000Z</time>
      </trkpt>
      <trkpt lat="46.27952" lon="5.79045">
        <ele>990.3</ele>
        <time>2018-07-08T15:09:25.000Z</time>
      </trkpt>
      <trkpt lat="46.27891" lon="5.79019">
        <ele>989.1</ele>
        <time>2018-07-08T15:10:25.000Z</time>
      </trkpt>
      <trkpt lat="46.2783" lon="5.78995">
        <ele>985.5</ele>
        <time>2018-07-08T15:11:26.000Z</time>
      </trkpt>
      <trkpt lat="46.27766" lon="5.78968">
        <ele>981.8</ele>
        <time>2018-07-08T15:12:27.000Z</time>
      </trkpt>
      <trkpt lat="46.277" lon="5.78944">
        <ele>981.1</ele>
        <time>2018-07-08T15:13:27.000Z</time>
      </trkpt>
      <trkpt lat="46.27635" lon="5.78951">
        <ele>976.1</ele>
        <time>2018-07-08T15:14:27.000Z</time>
      </trkpt>
      <trkpt lat="46.27573" lon="5.7892">
        <ele>974.4</ele>
        <time>2018-07-08T15:15:28.000Z</time>
      </trkpt>
      <trkpt lat="46.27532" lon="5.78866">
        <ele>972.6</ele>
        <time>2018-07-08T15:16:29.000Z</time>
      </trkpt>
      <trkpt lat="46.27475" lon="5.78828">
        <ele>970.9</ele>
        <time>2018-07-08T15:17:30.000Z</time>
      </trkpt>
      <trkpt lat="46.2742" lon="5.78785">
        <ele>969.4</ele>
        <time>2018-07-08T15:18:31.000Z</time>
      </trkpt>
      <trkpt lat="46.27364" lon="5.78743">
        <ele>972.3</ele>
        <time>2018-07-08T15:19:31.000Z</time>
      </trkpt>
      <trkpt lat="46.2731" lon="5.78688">
        <ele>969.5</ele>
        <time>2018-07-08T15:20:32.000Z</time>
      </trkpt>
      <trkpt lat="46.2727" lon="5.78622">
        <ele>965.3</ele>
        <time>2018-07-08T15:21:32.000Z</time>
      </trkpt>
      <trkpt lat="46.27252" lon="5.78577">
        <ele>961</ele>
        <time>2018-07-08T15:22:33.000Z</time>
      </trkpt>
      <trkpt lat="46.27249" lon="5.78526">
        <ele>952</ele>
        <time>2018-07-08T15:23:33.000Z</time>
      </trkpt>
      <trkpt lat="46.27239" lon="5.78472">
        <ele>961.2</ele>
        <time>2018-07-08T15:24:34.000Z</time>
      </trkpt>
      <trkpt lat="46.27237" lon="5.78443">
        <ele>966.9</ele>
        <time>2018-07-08T15:25:34.000Z</time>
      </trkpt>
      <trkpt lat="46.27239" lon="5.78436">
        <ele>967.9</ele>
        <time>2018-07-08T15:26:36.000Z</time>
      </trkpt>
      <trkpt lat="46.26662" lon="5.78416">
        <ele>188.4</ele>
        <time>2018-07-09T05:17:08.000Z</time>
      </trkpt>
      <trkpt lat="46.27245" lon="5.78446">
        <ele>966.8</ele>
        <time>2018-07-09T05:18:09.000Z</time>
      </trkpt>
      <trkpt lat="46.27245" lon="5.78453">
        <ele>970.6</ele>
        <time>2018-07-09T05:19:22.000Z</time>
      </trkpt>
      <trkpt lat="46.27236" lon="5.78418">
        <ele>965.7</ele>
        <time>2018-07-09T05:20:23.000Z</time>
      </trkpt>
      <trkpt lat="46.27214" lon="5.78387">
        <ele>966.9</ele>
        <time>2018-07-09T05:21:24.000Z</time>
      </trkpt>
      <trkpt lat="46.2718" lon="5.78362">
        <ele>960</ele>
        <time>2018-07-09T05:22:25.000Z</time>
      </trkpt>
      <trkpt lat="46.27168" lon="5.78362">
        <ele>966.8</ele>
        <time>2018-07-09T05:23:25.000Z</time>
      </trkpt>
      <trkpt lat="46.27123" lon="5.78376">
        <ele>971.5</ele>
        <time>2018-07-09T05:24:26.000Z</time>
      </trkpt>
      <trkpt lat="46.27073" lon="5.78316">
        <ele>973.3</ele>
        <time>2018-07-09T05:25:26.000Z</time>
      </trkpt>
      <trkpt lat="46.27045" lon="5.78295">
        <ele>966.9</ele>
        <time>2018-07-09T05:26:27.000Z</time>
      </trkpt>
      <trkpt lat="46.27026" lon="5.78315">
        <ele>976.6</ele>
        <time>2018-07-09T05:27:27.000Z</time>
      </trkpt>
      <trkpt lat="46.26957" lon="5.78273">
        <ele>974.1</ele>
        <time>2018-07-09T05:28:27.000Z</time>
      </trkpt>
      <trkpt lat="46.26907" lon="5.78223">
        <ele>979.6</ele>
        <time>2018-07-09T05:29:28.000Z</time>
      </trkpt>
      <trkpt lat="46.26886" lon="5.78128">
        <ele>974.2</ele>
        <time>2018-07-09T05:30:29.000Z</time>
      </trkpt>
      <trkpt lat="46.26848" lon="5.78047">
        <ele>980.7</ele>
        <time>2018-07-09T05:31:30.000Z</time>
      </trkpt>
      <trkpt lat="46.26808" lon="5.77995">
        <ele>985.2</ele>
        <time>2018-07-09T05:32:30.000Z</time>
      </trkpt>
      <trkpt lat="46.26755" lon="5.77928">
        <ele>992.3</ele>
        <time>2018-07-09T05:33:31.000Z</time>
      </trkpt>
      <trkpt lat="46.26719" lon="5.7788">
        <ele>998.6</ele>
        <time>2018-07-09T05:34:32.000Z</time>
      </trkpt>
      <trkpt lat="46.26682" lon="5.77839">
        <ele>997</ele>
        <time>2018-07-09T05:35:33.000Z</time>
      </trkpt>
      <trkpt lat="46.26651" lon="5.7776">
        <ele>992.5</ele>
        <time>2018-07-09T05:36:33.000Z</time>
      </trkpt>
      <trkpt lat="46.26638" lon="5.77655">
        <ele>993.9</ele>
        <time>2018-07-09T05:37:34.000Z</time>
      </trkpt>
      <trkpt lat="46.26647" lon="5.77566">
        <ele>1010.8</ele>
        <time>2018-07-09T05:38:34.000Z</time>
      </trkpt>
      <trkpt lat="46.26659" lon="5.77527">
        <ele>1011.5</ele>
        <time>2018-07-09T05:39:35.000Z</time>
      </trkpt>
      <trkpt lat="46.26616" lon="5.77471">
        <ele>1003.8</ele>
        <time>2018-07-09T05:40:36.000Z</time>
      </trkpt>
      <trkpt lat="46.26554" lon="5.77402">
        <ele>1006.3</ele>
        <time>2018-07-09T05:41:37.000Z</time>
      </trkpt>
      <trkpt lat="46.26491" lon="5.77352">
        <ele>1011.1</ele>
        <time>2018-07-09T05:42:38.000Z</time>
      </trkpt>
      <trkpt lat="46.26448" lon="5.77274">
        <ele>1011.9</ele>
        <time>2018-07-09T05:43:38.000Z</time>
      </trkpt>
      <trkpt lat="46.26406" lon="5.77227">
        <ele>1002.9</ele>
        <time>2018-07-09T05:44:39.000Z</time>
      </trkpt>
      <trkpt lat="46.26359" lon="5.77226">
        <ele>986.9</ele>
        <time>2018-07-09T05:45:39.000Z</time>
      </trkpt>
      <trkpt lat="46.26328" lon="5.772">
        <ele>981.4</ele>
        <time>2018-07-09T05:46:40.000Z</time>
      </trkpt>
      <trkpt lat="46.26279" lon="5.77173">
        <ele>982.7</ele>
        <time>2018-07-09T05:47:41.000Z</time>
      </trkpt>
      <trkpt lat="46.26236" lon="5.77166">
        <ele>978.2</ele>
        <time>2018-07-09T05:48:41.000Z</time>
      </trkpt>
      <trkpt lat="46.2619" lon="5.7718">
        <ele>974.6</ele>
        <time>2018-07-09T05:49:42.000Z</time>
      </trkpt>
      <trkpt lat="46.26173" lon="5.77115">
        <ele>969.5</ele>
        <time>2018-07-09T05:50:43.000Z</time>
      </trkpt>
      <trkpt lat="46.26167" lon="5.77069">
        <ele>961.6</ele>
        <time>2018-07-09T05:51:44.000Z</time>
      </trkpt>
      <trkpt lat="46.2617" lon="5.77086">
        <ele>957.1</ele>
        <time>2018-07-09T05:52:45.000Z</time>
      </trkpt>
      <trkpt lat="46.26131" lon="5.77141">
        <ele>962.9</ele>
        <time>2018-07-09T05:53:45.000Z</time>
      </trkpt>
      <trkpt lat="46.26095" lon="5.77243">
        <ele>954.7</ele>
        <time>2018-07-09T05:54:46.000Z</time>
      </trkpt>
      <trkpt lat="46.26043" lon="5.77303">
        <ele>944.8</ele>
        <time>2018-07-09T05:55:47.000Z</time>
      </trkpt>
      <trkpt lat="46.26015" lon="5.77226">
        <ele>959.3</ele>
        <time>2018-07-09T05:56:47.000Z</time>
      </trkpt>
      <trkpt lat="46.25972" lon="5.77142">
        <ele>959.6</ele>
        <time>2018-07-09T05:57:48.000Z</time>
      </trkpt>
      <trkpt lat="46.25919" lon="5.77094">
        <ele>956.3</ele>
        <time>2018-07-09T05:58:48.000Z</time>
      </trkpt>
      <trkpt lat="46.25881" lon="5.77012">
        <ele>951.8</ele>
        <time>2018-07-09T05:59:49.000Z</time>
      </trkpt>
      <trkpt lat="46.25878" lon="5.76904">
        <ele>944.3</ele>
        <time>2018-07-09T06:00:50.000Z</time>
      </trkpt>
      <trkpt lat="46.25875" lon="5.76829">
        <ele>948.3</ele>
        <time>2018-07-09T06:01:50.000Z</time>
      </trkpt>
      <trkpt lat="46.25835" lon="5.76749">
        <ele>946.4</ele>
        <time>2018-07-09T06:02:51.000Z</time>
      </trkpt>
      <trkpt lat="46.25806" lon="5.76709">
        <ele>948.9</ele>
        <time>2018-07-09T06:03:51.000Z</time>
      </trkpt>
      <trkpt lat="46.25746" lon="5.76688">
        <ele>950.4</ele>
        <time>2018-07-09T06:04:51.000Z</time>
      </trkpt>
      <trkpt lat="46.25738" lon="5.76598">
        <ele>939.9</ele>
        <time>2018-07-09T06:05:52.000Z</time>
      </trkpt>
      <trkpt lat="46.25738" lon="5.76527">
        <ele>948.6</ele>
        <time>2018-07-09T06:06:52.000Z</time>
      </trkpt>
      <trkpt lat="46.25698" lon="5.7652">
        <ele>933.9</ele>
        <time>2018-07-09T06:07:53.000Z</time>
      </trkpt>
      <trkpt lat="46.25704" lon="5.76465">
        <ele>926.3</ele>
        <time>2018-07-09T06:08:53.000Z</time>
      </trkpt>
      <trkpt lat="46.25722" lon="5.76383">
        <ele>930.6</ele>
        <time>2018-07-09T06:09:54.000Z</time>
      </trkpt>
      <trkpt lat="46.25673" lon="5.7636">
        <ele>927.5</ele>
        <time>2018-07-09T06:10:54.000Z</time>
      </trkpt>
      <trkpt lat="46.25646" lon="5.76321">
        <ele>920.4</ele>
        <time>2018-07-09T06:11:55.000Z</time>
      </trkpt>
      <trkpt lat="46.25597" lon="5.76288">
        <ele>908.4</ele>
        <time>2018-07-09T06:12:55.000Z</time>
      </trkpt>
      <trkpt lat="46.25545" lon="5.76258">
        <ele>911.7</ele>
        <time>2018-07-09T06:13:56.000Z</time>
      </trkpt>
      <trkpt lat="46.25538" lon="5.76162">
        <ele>906.5</ele>
        <time>2018-07-09T06:14:57.000Z</time>
      </trkpt>
      <trkpt lat="46.25539" lon="5.76086">
        <ele>918</ele>
        <time>2018-07-09T06:15:57.000Z</time>
      </trkpt>
      <trkpt lat="46.25554" lon="5.76011">
        <ele>912.5</ele>
        <time>2018-07-09T06:16:58.000Z</time>
      </trkpt>
      <trkpt lat="46.25582" lon="5.75916">
        <ele>913.4</ele>
        <time>2018-07-09T06:17:59.000Z</time>
      </trkpt>
      <trkpt lat="46.25592" lon="5.75816">
        <ele>918.4</ele>
        <time>2018-07-09T06:18:59.000Z</time>
      </trkpt>
      <trkpt lat="46.25595" lon="5.75712">
        <ele>934.4</ele>
        <time>2018-07-09T06:20:00.000Z</time>
      </trkpt>
      <trkpt lat="46.25569" lon="5.75623">
        <ele>943</ele>
        <time>2018-07-09T06:21:00.000Z</time>
      </trkpt>
      <trkpt lat="46.25517" lon="5.75612">
        <ele>934.6</ele>
        <time>2018-07-09T06:22:01.000Z</time>
      </trkpt>
      <trkpt lat="46.25491" lon="5.75636">
        <ele>935.9</ele>
        <time>2018-07-09T06:23:01.000Z</time>
      </trkpt>
      <trkpt lat="46.25487" lon="5.75637">
        <ele>934.5</ele>
        <time>2018-07-09T06:24:48.000Z</time>
      </trkpt>
      <trkpt lat="46.25436" lon="5.7561">
        <ele>919.7</ele>
        <time>2018-07-09T06:25:49.000Z</time>
      </trkpt>
      <trkpt lat="46.25395" lon="5.75519">
        <ele>908.9</ele>
        <time>2018-07-09T06:26:50.000Z</time>
      </trkpt>
      <trkpt lat="46.2538" lon="5.75423">
        <ele>898</ele>
        <time>2018-07-09T06:27:51.000Z</time>
      </trkpt>
      <trkpt lat="46.25373" lon="5.75373">
        <ele>901.4</ele>
        <time>2018-07-09T06:28:52.000Z</time>
      </trkpt>
      <trkpt lat="46.25374" lon="5.75288">
        <ele>896.4</ele>
        <time>2018-07-09T06:29:53.000Z</time>
      </trkpt>
      <trkpt lat="46.25364" lon="5.75194">
        <ele>896</ele>
        <time>2018-07-09T06:30:53.000Z</time>
      </trkpt>
      <trkpt lat="46.25355" lon="5.75087">
        <ele>899.6</ele>
        <time>2018-07-09T06:31:54.000Z</time>
      </trkpt>
      <trkpt lat="46.25334" lon="5.75">
        <ele>906.8</ele>
        <time>2018-07-09T06:32:55.000Z</time>
      </trkpt>
      <trkpt lat="46.25315" lon="5.74901">
        <ele>903.9</ele>
        <time>2018-07-09T06:33:56.000Z</time>
      </trkpt>
      <trkpt lat="46.25301" lon="5.7482">
        <ele>923.2</ele>
        <time>2018-07-09T06:34:57.000Z</time>
      </trkpt>
      <trkpt lat="46.25278" lon="5.74745">
        <ele>929.5</ele>
        <time>2018-07-09T06:35:57.000Z</time>
      </trkpt>
      <trkpt lat="46.25228" lon="5.74667">
        <ele>923.1</ele>
        <time>2018-07-09T06:36:58.000Z</time>
      </trkpt>
      <trkpt lat="46.25182" lon="5.74584">
        <ele>911.6</ele>
        <time>2018-07-09T06:37:58.000Z</time>
      </trkpt>
      <trkpt lat="46.25137" lon="5.74494">
        <ele>923.2</ele>
        <time>2018-07-09T06:38:59.000Z</time>
      </trkpt>
      <trkpt lat="46.25132" lon="5.74431">
        <ele>919.8</ele>
        <time>2018-07-09T06:39:59.000Z</time>
      </trkpt>
      <trkpt lat="46.25143" lon="5.74353">
        <ele>916.5</ele>
        <time>2018-07-09T06:41:00.000Z</time>
      </trkpt>
      <trkpt lat="46.25115" lon="5.74266">
        <ele>911</ele>
        <time>2018-07-09T06:42:00.000Z</time>
      </trkpt>
      <trkpt lat="46.25067" lon="5.74233">
        <ele>919.4</ele>
        <time>2018-07-09T06:43:01.000Z</time>
      </trkpt>
      <trkpt lat="46.25031" lon="5.74205">
        <ele>922.6</ele>
        <time>2018-07-09T06:44:02.000Z</time>
      </trkpt>
      <trkpt lat="46.25021" lon="5.74198">
        <ele>930.3</ele>
        <time>2018-07-09T06:45:03.000Z</time>
      </trkpt>
      <trkpt lat="46.25018" lon="5.74192">
        <ele>936.3</ele>
        <time>2018-07-09T06:47:26.000Z</time>
      </trkpt>
      <trkpt lat="46.24961" lon="5.7416">
        <ele>934.5</ele>
        <time>2018-07-09T06:48:27.000Z</time>
      </trkpt>
      <trkpt lat="46.249" lon="5.74177">
        <ele>926.8</ele>
        <time>2018-07-09T06:49:27.000Z</time>
      </trkpt>
      <trkpt lat="46.24861" lon="5.7416">
        <ele>920.2</ele>
        <time>2018-07-09T06:50:28.000Z</time>
      </trkpt>
      <trkpt lat="46.24838" lon="5.74111">
        <ele>911.8</ele>
        <time>2018-07-09T06:51:29.000Z</time>
      </trkpt>
      <trkpt lat="46.24801" lon="5.74047">
        <ele>915.1</ele>
        <time>2018-07-09T06:52:30.000Z</time>
      </trkpt>
      <trkpt lat="46.24766" lon="5.73984">
        <ele>918.8</ele>
        <time>2018-07-09T06:53:31.000Z</time>
      </trkpt>
      <trkpt lat="46.24704" lon="5.73951">
        <ele>913</ele>
        <time>2018-07-09T06:54:32.000Z</time>
      </trkpt>
      <trkpt lat="46.24655" lon="5.73893">
        <ele>918.5</ele>
        <time>2018-07-09T06:55:33.000Z</time>
      </trkpt>
      <trkpt lat="46.24617" lon="5.73809">
        <ele>920.1</ele>
        <time>2018-07-09T06:56:34.000Z</time>
      </trkpt>
      <trkpt lat="46.24564" lon="5.73755">
        <ele>906.3</ele>
        <time>2018-07-09T06:57:35.000Z</time>
      </trkpt>
      <trkpt lat="46.2449" lon="5.73764">
        <ele>888</ele>
        <time>2018-07-09T06:58:35.000Z</time>
      </trkpt>
      <trkpt lat="46.2444" lon="5.73686">
        <ele>889.3</ele>
        <time>2018-07-09T06:59:35.000Z</time>
      </trkpt>
      <trkpt lat="46.2441" lon="5.73604">
        <ele>878.7</ele>
        <time>2018-07-09T07:00:36.000Z</time>
      </trkpt>
      <trkpt lat="46.24373" lon="5.73524">
        <ele>873.9</ele>
        <time>2018-07-09T07:01:37.000Z</time>
      </trkpt>
      <trkpt lat="46.24322" lon="5.73506">
        <ele>876</ele>
        <time>2018-07-09T07:02:38.000Z</time>
      </trkpt>
      <trkpt lat="46.24246" lon="5.73501">
        <ele>865.6</ele>
        <time>2018-07-09T07:03:39.000Z</time>
      </trkpt>
      <trkpt lat="46.24173" lon="5.73483">
        <ele>864.3</ele>
        <time>2018-07-09T07:04:40.000Z</time>
      </trkpt>
      <trkpt lat="46.24136" lon="5.73485">
        <ele>864.1</ele>
        <time>2018-07-09T07:05:41.000Z</time>
      </trkpt>
      <trkpt lat="46.24065" lon="5.73448">
        <ele>864.5</ele>
        <time>2018-07-09T07:06:42.000Z</time>
      </trkpt>
      <trkpt lat="46.23998" lon="5.73415">
        <ele>863.8</ele>
        <time>2018-07-09T07:07:42.000Z</time>
      </trkpt>
      <trkpt lat="46.23959" lon="5.73387">
        <ele>854.4</ele>
        <time>2018-07-09T07:08:43.000Z</time>
      </trkpt>
      <trkpt lat="46.23886" lon="5.73345">
        <ele>850.4</ele>
        <time>2018-07-09T07:09:44.000Z</time>
      </trkpt>
      <trkpt lat="46.23816" lon="5.7331">
        <ele>852.6</ele>
        <time>2018-07-09T07:10:45.000Z</time>
      </trkpt>
      <trkpt lat="46.23809" lon="5.73303">
        <ele>853</ele>
        <time>2018-07-09T07:11:45.000Z</time>
      </trkpt>
      <trkpt lat="46.23814" lon="5.73302">
        <ele>854.2</ele>
        <time>2018-07-09T07:14:17.000Z</time>
      </trkpt>
      <trkpt lat="46.23818" lon="5.73298">
        <ele>853.4</ele>
        <time>2018-07-09T07:15:44.000Z</time>
      </trkpt>
      <trkpt lat="46.23825" lon="5.73297">
        <ele>858.4</ele>
        <time>2018-07-09T07:16:44.000Z</time>
      </trkpt>
      <trkpt lat="46.23818" lon="5.73299">
        <ele>856.6</ele>
        <time>2018-07-09T07:43:43.000Z</time>
      </trkpt>
      <trkpt lat="46.23814" lon="5.73303">
        <ele>862.8</ele>
        <time>2018-07-09T07:46:36.000Z</time>
      </trkpt>
      <trkpt lat="46.23765" lon="5.73274">
        <ele>865.7</ele>
        <time>2018-07-09T07:47:37.000Z</time>
      </trkpt>
      <trkpt lat="46.23691" lon="5.73241">
        <ele>868.4</ele>
        <time>2018-07-09T07:48:38.000Z</time>
      </trkpt>
      <trkpt lat="46.23633" lon="5.73194">
        <ele>858.7</ele>
        <time>2018-07-09T07:49:38.000Z</time>
      </trkpt>
      <trkpt lat="46.2357" lon="5.73158">
        <ele>847.4</ele>
        <time>2018-07-09T07:50:39.000Z</time>
      </trkpt>
      <trkpt lat="46.23509" lon="5.73115">
        <ele>856.8</ele>
        <time>2018-07-09T07:51:39.000Z</time>
      </trkpt>
      <trkpt lat="46.23447" lon="5.7306">
        <ele>841.7</ele>
        <time>2018-07-09T07:52:39.000Z</time>
      </trkpt>
      <trkpt lat="46.23399" lon="5.73056">
        <ele>835.6</ele>
        <time>2018-07-09T07:53:40.000Z</time>
      </trkpt>
      <trkpt lat="46.23344" lon="5.73103">
        <ele>835.5</ele>
        <time>2018-07-09T07:54:40.000Z</time>
      </trkpt>
      <trkpt lat="46.23266" lon="5.73083">
        <ele>831.1</ele>
        <time>2018-07-09T07:55:41.000Z</time>
      </trkpt>
      <trkpt lat="46.23196" lon="5.73035">
        <ele>827.9</ele>
        <time>2018-07-09T07:56:42.000Z</time>
      </trkpt>
      <trkpt lat="46.23124" lon="5.73038">
        <ele>826.1</ele>
        <time>2018-07-09T07:57:43.000Z</time>
      </trkpt>
      <trkpt lat="46.23117" lon="5.72945">
        <ele>817.2</ele>
        <time>2018-07-09T07:58:44.000Z</time>
      </trkpt>
      <trkpt lat="46.23088" lon="5.72881">
        <ele>819.3</ele>
        <time>2018-07-09T07:59:44.000Z</time>
      </trkpt>
      <trkpt lat="46.2304" lon="5.7281">
        <ele>812.1</ele>
        <time>2018-07-09T08:00:45.000Z</time>
      </trkpt>
      <trkpt lat="46.2299" lon="5.72753">
        <ele>814.4</ele>
        <time>2018-07-09T08:01:45.000Z</time>
      </trkpt>
      <trkpt lat="46.2293" lon="5.72718">
        <ele>807.9</ele>
        <time>2018-07-09T08:02:46.000Z</time>
      </trkpt>
      <trkpt lat="46.22887" lon="5.72649">
        <ele>806.3</ele>
        <time>2018-07-09T08:03:47.000Z</time>
      </trkpt>
      <trkpt lat="46.2285" lon="5.72569">
        <ele>804.6</ele>
        <time>2018-07-09T08:04:47.000Z</time>
      </trkpt>
      <trkpt lat="46.22817" lon="5.72488">
        <ele>802.5</ele>
        <time>2018-07-09T08:05:48.000Z</time>
      </trkpt>
      <trkpt lat="46.22786" lon="5.72405">
        <ele>832.1</ele>
        <time>2018-07-09T08:06:49.000Z</time>
      </trkpt>
      <trkpt lat="46.2275" lon="5.7233">
        <ele>841.9</ele>
        <time>2018-07-09T08:07:49.000Z</time>
      </trkpt>
      <trkpt lat="46.22701" lon="5.72281">
        <ele>829.6</ele>
        <time>2018-07-09T08:08:50.000Z</time>
      </trkpt>
      <trkpt lat="46.2266" lon="5.722">
        <ele>838.1</ele>
        <time>2018-07-09T08:09:50.000Z</time>
      </trkpt>
      <trkpt lat="46.22633" lon="5.72126">
        <ele>838.6</ele>
        <time>2018-07-09T08:10:51.000Z</time>
      </trkpt>
      <trkpt lat="46.22627" lon="5.7208">
        <ele>842.5</ele>
        <time>2018-07-09T08:11:52.000Z</time>
      </trkpt>
      <trkpt lat="46.22576" lon="5.72015">
        <ele>852.1</ele>
        <time>2018-07-09T08:12:52.000Z</time>
      </trkpt>
      <trkpt lat="46.22517" lon="5.71974">
        <ele>859.3</ele>
        <time>2018-07-09T08:13:53.000Z</time>
      </trkpt>
      <trkpt lat="46.2245" lon="5.71943">
        <ele>866.4</ele>
        <time>2018-07-09T08:14:54.000Z</time>
      </trkpt>
      <trkpt lat="46.22393" lon="5.71911">
        <ele>872.1</ele>
        <time>2018-07-09T08:15:55.000Z</time>
      </trkpt>
      <trkpt lat="46.22332" lon="5.7187">
        <ele>863.6</ele>
        <time>2018-07-09T08:16:55.000Z</time>
      </trkpt>
      <trkpt lat="46.2228" lon="5.7181">
        <ele>870.8</ele>
        <time>2018-07-09T08:17:56.000Z</time>
      </trkpt>
      <trkpt lat="46.2224" lon="5.71736">
        <ele>877.6</ele>
        <time>2018-07-09T08:18:57.000Z</time>
      </trkpt>
      <trkpt lat="46.22204" lon="5.71669">
        <ele>890.9</ele>
        <time>2018-07-09T08:19:57.000Z</time>
      </trkpt>
      <trkpt lat="46.22147" lon="5.71635">
        <ele>885.9</ele>
        <time>2018-07-09T08:20:58.000Z</time>
      </trkpt>
      <trkpt lat="46.22084" lon="5.71595">
        <ele>866.6</ele>
        <time>2018-07-09T08:21:59.000Z</time>
      </trkpt>
      <trkpt lat="46.22042" lon="5.71521">
        <ele>859.1</ele>
        <time>2018-07-09T08:23:00.000Z</time>
      </trkpt>
      <trkpt lat="46.21989" lon="5.7148">
        <ele>859.9</ele>
        <time>2018-07-09T08:24:00.000Z</time>
      </trkpt>
      <trkpt lat="46.21943" lon="5.71446">
        <ele>864.2</ele>
        <time>2018-07-09T08:25:01.000Z</time>
      </trkpt>
      <trkpt lat="46.21915" lon="5.71416">
        <ele>865.9</ele>
        <time>2018-07-09T08:26:01.000Z</time>
      </trkpt>
      <trkpt lat="46.21869" lon="5.71356">
        <ele>854.1</ele>
        <time>2018-07-09T08:27:01.000Z</time>
      </trkpt>
      <trkpt lat="46.21853" lon="5.71311">
        <ele>854.6</ele>
        <time>2018-07-09T08:28:02.000Z</time>
      </trkpt>
      <trkpt lat="46.21846" lon="5.71234">
        <ele>861.8</ele>
        <time>2018-07-09T08:29:02.000Z</time>
      </trkpt>
      <trkpt lat="46.21828" lon="5.7118">
        <ele>870.1</ele>
        <time>2018-07-09T08:30:03.000Z</time>
      </trkpt>
      <trkpt lat="46.21818" lon="5.7116">
        <ele>876.6</ele>
        <time>2018-07-09T08:31:04.000Z</time>
      </trkpt>
      <trkpt lat="46.21774" lon="5.71145">
        <ele>881.4</ele>
        <time>2018-07-09T08:32:05.000Z</time>
      </trkpt>
      <trkpt lat="46.21737" lon="5.71133">
        <ele>885.8</ele>
        <time>2018-07-09T08:33:05.000Z</time>
      </trkpt>
      <trkpt lat="46.21748" lon="5.71082">
        <ele>885.7</ele>
        <time>2018-07-09T08:34:06.000Z</time>
      </trkpt>
      <trkpt lat="46.2174" lon="5.71062">
        <ele>880.2</ele>
        <time>2018-07-09T08:35:06.000Z</time>
      </trkpt>
      <trkpt lat="46.21706" lon="5.71038">
        <ele>886</ele>
        <time>2018-07-09T08:36:07.000Z</time>
      </trkpt>
      <trkpt lat="46.21665" lon="5.71007">
        <ele>888.3</ele>
        <time>2018-07-09T08:37:08.000Z</time>
      </trkpt>
      <trkpt lat="46.21632" lon="5.71023">
        <ele>886.6</ele>
        <time>2018-07-09T08:38:09.000Z</time>
      </trkpt>
      <trkpt lat="46.21614" lon="5.70945">
        <ele>883.5</ele>
        <time>2018-07-09T08:39:09.000Z</time>
      </trkpt>
      <trkpt lat="46.21614" lon="5.70852">
        <ele>869.6</ele>
        <time>2018-07-09T08:40:10.000Z</time>
      </trkpt>
      <trkpt lat="46.21624" lon="5.70759">
        <ele>886</ele>
        <time>2018-07-09T08:41:11.000Z</time>
      </trkpt>
      <trkpt lat="46.21611" lon="5.70663">
        <ele>878.4</ele>
        <time>2018-07-09T08:42:11.000Z</time>
      </trkpt>
      <trkpt lat="46.21587" lon="5.70613">
        <ele>881.6</ele>
        <time>2018-07-09T08:43:12.000Z</time>
      </trkpt>
      <trkpt lat="46.21595" lon="5.70542">
        <ele>887.1</ele>
        <time>2018-07-09T08:44:12.000Z</time>
      </trkpt>
      <trkpt lat="46.21631" lon="5.70484">
        <ele>904.6</ele>
        <time>2018-07-09T08:45:13.000Z</time>
      </trkpt>
      <trkpt lat="46.21633" lon="5.70394">
        <ele>909.4</ele>
        <time>2018-07-09T08:46:14.000Z</time>
      </trkpt>
      <trkpt lat="46.21617" lon="5.70306">
        <ele>898</ele>
        <time>2018-07-09T08:47:14.000Z</time>
      </trkpt>
      <trkpt lat="46.21593" lon="5.70236">
        <ele>890.7</ele>
        <time>2018-07-09T08:48:15.000Z</time>
      </trkpt>
      <trkpt lat="46.21546" lon="5.70208">
        <ele>879.2</ele>
        <time>2018-07-09T08:49:15.000Z</time>
      </trkpt>
      <trkpt lat="46.21481" lon="5.70202">
        <ele>883.3</ele>
        <time>2018-07-09T08:50:15.000Z</time>
      </trkpt>
      <trkpt lat="46.21446" lon="5.70167">
        <ele>878.8</ele>
        <time>2018-07-09T08:51:16.000Z</time>
      </trkpt>
      <trkpt lat="46.2143" lon="5.70086">
        <ele>867.2</ele>
        <time>2018-07-09T08:52:16.000Z</time>
      </trkpt>
      <trkpt lat="46.21403" lon="5.70005">
        <ele>856.7</ele>
        <time>2018-07-09T08:53:17.000Z</time>
      </trkpt>
      <trkpt lat="46.21394" lon="5.69915">
        <ele>849.1</ele>
        <time>2018-07-09T08:54:17.000Z</time>
      </trkpt>
      <trkpt lat="46.21379" lon="5.69832">
        <ele>854.2</ele>
        <time>2018-07-09T08:55:18.000Z</time>
      </trkpt>
      <trkpt lat="46.21341" lon="5.69765">
        <ele>847.8</ele>
        <time>2018-07-09T08:56:19.000Z</time>
      </trkpt>
      <trkpt lat="46.21301" lon="5.69725">
        <ele>854</ele>
        <time>2018-07-09T08:57:19.000Z</time>
      </trkpt>
      <trkpt lat="46.21302" lon="5.69731">
        <ele>852.6</ele>
        <time>2018-07-09T08:58:49.000Z</time>
      </trkpt>
      <trkpt lat="46.21303" lon="5.69724">
        <ele>845.6</ele>
        <time>2018-07-09T08:59:49.000Z</time>
      </trkpt>
      <trkpt lat="46.21295" lon="5.69722">
        <ele>848.7</ele>
        <time>2018-07-09T09:01:26.000Z</time>
      </trkpt>
      <trkpt lat="46.21291" lon="5.69717">
        <ele>850.5</ele>
        <time>2018-07-09T09:03:29.000Z</time>
      </trkpt>
      <trkpt lat="46.21242" lon="5.69652">
        <ele>842</ele>
        <time>2018-07-09T09:04:30.000Z</time>
      </trkpt>
      <trkpt lat="46.21187" lon="5.69604">
        <ele>820.5</ele>
        <time>2018-07-09T09:05:31.000Z</time>
      </trkpt>
      <trkpt lat="46.21148" lon="5.69579">
        <ele>822.5</ele>
        <time>2018-07-09T09:06:32.000Z</time>
      </trkpt>
      <trkpt lat="46.21094" lon="5.69537">
        <ele>834.8</ele>
        <time>2018-07-09T09:07:32.000Z</time>
      </trkpt>
      <trkpt lat="46.21026" lon="5.69513">
        <ele>847.9</ele>
        <time>2018-07-09T09:08:32.000Z</time>
      </trkpt>
      <trkpt lat="46.20953" lon="5.6949">
        <ele>851.4</ele>
        <time>2018-07-09T09:09:33.000Z</time>
      </trkpt>
      <trkpt lat="46.20891" lon="5.69471">
        <ele>838</ele>
        <time>2018-07-09T09:10:34.000Z</time>
      </trkpt>
      <trkpt lat="46.20827" lon="5.69451">
        <ele>833.3</ele>
        <time>2018-07-09T09:11:34.000Z</time>
      </trkpt>
      <trkpt lat="46.20759" lon="5.69428">
        <ele>838.7</ele>
        <time>2018-07-09T09:12:35.000Z</time>
      </trkpt>
      <trkpt lat="46.20688" lon="5.69404">
        <ele>841.9</ele>
        <time>2018-07-09T09:13:35.000Z</time>
      </trkpt>
      <trkpt lat="46.20623" lon="5.69397">
        <ele>831.7</ele>
        <time>2018-07-09T09:14:35.000Z</time>
      </trkpt>
      <trkpt lat="46.20556" lon="5.69387">
        <ele>825.2</ele>
        <time>2018-07-09T09:15:36.000Z</time>
      </trkpt>
      <trkpt lat="46.20497" lon="5.69377">
        <ele>822.3</ele>
        <time>2018-07-09T09:16:36.000Z</time>
      </trkpt>
      <trkpt lat="46.20434" lon="5.69332">
        <ele>847.7</ele>
        <time>2018-07-09T09:17:37.000Z</time>
      </trkpt>
      <trkpt lat="46.20368" lon="5.69307">
        <ele>860.1</ele>
        <time>2018-07-09T09:18:38.000Z</time>
      </trkpt>
      <trkpt lat="46.20304" lon="5.69296">
        <ele>844.7</ele>
        <time>2018-07-09T09:19:38.000Z</time>
      </trkpt>
      <trkpt lat="46.20226" lon="5.69287">
        <ele>826.6</ele>
        <time>2018-07-09T09:20:39.000Z</time>
      </trkpt>
      <trkpt lat="46.20156" lon="5.69268">
        <ele>820.3</ele>
        <time>2018-07-09T09:21:39.000Z</time>
      </trkpt>
      <trkpt lat="46.20101" lon="5.69202">
        <ele>824.7</ele>
        <time>2018-07-09T09:22:40.000Z</time>
      </trkpt>
      <trkpt lat="46.20053" lon="5.69124">
        <ele>822.3</ele>
        <time>2018-07-09T09:23:41.000Z</time>
      </trkpt>
      <trkpt lat="46.20042" lon="5.69082">
        <ele>821.3</ele>
        <time>2018-07-09T09:24:41.000Z</time>
      </trkpt>
      <trkpt lat="46.20012" lon="5.69022">
        <ele>818.9</ele>
        <time>2018-07-09T09:25:41.000Z</time>
      </trkpt>
      <trkpt lat="46.1997" lon="5.68943">
        <ele>817.6</ele>
        <time>2018-07-09T09:26:42.000Z</time>
      </trkpt>
      <trkpt lat="46.1991" lon="5.68894">
        <ele>810.8</ele>
        <time>2018-07-09T09:27:43.000Z</time>
      </trkpt>
      <trkpt lat="46.19838" lon="5.6887">
        <ele>789.6</ele>
        <time>2018-07-09T09:28:43.000Z</time>
      </trkpt>
      <trkpt lat="46.19783" lon="5.6883">
        <ele>778.9</ele>
        <time>2018-07-09T09:29:44.000Z</time>
      </trkpt>
      <trkpt lat="46.19778" lon="5.68832">
        <ele>782.6</ele>
        <time>2018-07-09T09:30:44.000Z</time>
      </trkpt>
      <trkpt lat="46.19717" lon="5.68812">
        <ele>786.7</ele>
        <time>2018-07-09T09:31:45.000Z</time>
      </trkpt>
      <trkpt lat="46.19648" lon="5.68818">
        <ele>797.5</ele>
        <time>2018-07-09T09:32:46.000Z</time>
      </trkpt>
      <trkpt lat="46.19604" lon="5.68804">
        <ele>797.8</ele>
        <time>2018-07-09T09:33:46.000Z</time>
      </trkpt>
      <trkpt lat="46.19545" lon="5.6875">
        <ele>805.8</ele>
        <time>2018-07-09T09:34:46.000Z</time>
      </trkpt>
      <trkpt lat="46.19498" lon="5.68707">
        <ele>802.9</ele>
        <time>2018-07-09T09:35:46.000Z</time>
      </trkpt>
      <trkpt lat="46.19493" lon="5.68707">
        <ele>801.7</ele>
        <time>2018-07-09T09:37:35.000Z</time>
      </trkpt>
      <trkpt lat="46.19481" lon="5.6869">
        <ele>801.4</ele>
        <time>2018-07-09T09:38:35.000Z</time>
      </trkpt>
      <trkpt lat="46.19462" lon="5.68662">
        <ele>801.6</ele>
        <time>2018-07-09T09:39:36.000Z</time>
      </trkpt>
      <trkpt lat="46.1943" lon="5.68608">
        <ele>801.7</ele>
        <time>2018-07-09T09:40:37.000Z</time>
      </trkpt>
      <trkpt lat="46.19379" lon="5.68548">
        <ele>801.2</ele>
        <time>2018-07-09T09:41:37.000Z</time>
      </trkpt>
      <trkpt lat="46.1932" lon="5.68485">
        <ele>793.3</ele>
        <time>2018-07-09T09:42:38.000Z</time>
      </trkpt>
      <trkpt lat="46.19315" lon="5.68471">
        <ele>794.9</ele>
        <time>2018-07-09T09:43:39.000Z</time>
      </trkpt>
      <trkpt lat="46.19313" lon="5.68478">
        <ele>800.9</ele>
        <time>2018-07-09T09:50:44.000Z</time>
      </trkpt>
    </trkseg>
  </trk>
</gpx>